Observation data for Colorado City on 03/25/2019      Previous  Date  Next       Current Mesonet Observations  Soil Data  Daily Summary Page  Observations in Plain Language
KCO2 250500Z 07007KT 14/07 A3008 RMK A01 T01410065  RH  060%=      5-min Rain = 0
KCO2 250501Z 07008KT 14/07 A3008 RMK A01 T01410065  RH  060%=      5-min Rain = 0
KCO2 250502Z 08008KT 14/07 A3008 RMK A01 T01410066  RH  060%=      5-min Rain = 0
KCO2 250503Z 08008KT 14/07 A3008 RMK A01 T01410066  RH  060%=      5-min Rain = 0
KCO2 250504Z 08008KT 14/07 A3008 RMK A01 T01410066  RH  060%=      5-min Rain = 0
KCO2 250505Z 08007KT 14/07 A3008 RMK A01 T01410066  RH  061%=      5-min Rain = 0
KCO2 250506Z 08007KT 14/07 A3008 RMK A01 T01410066  RH  061%=      5-min Rain = 0
KCO2 250507Z 08007KT 14/07 A3008 RMK A01 T01410066  RH  061%=      5-min Rain = 0
KCO2 250508Z 08007KT 14/07 A3008 RMK A01 T01410066  RH  061%=      5-min Rain = 0
KCO2 250509Z 08007KT 14/07 A3009 RMK A01 T01400066  RH  061%=      5-min Rain = 0
KCO2 250510Z 08007KT 14/07 A3009 RMK A01 T01400066  RH  061%=      5-min Rain = 0
KCO2 250511Z 08006KT 14/07 A3009 RMK A01 T01400066  RH  061%=      5-min Rain = 0
KCO2 250512Z 09006KT 14/07 A3009 RMK A01 T01400066  RH  061%=      5-min Rain = 0
KCO2 250513Z 09007KT 14/07 A3009 RMK A01 T01390066  RH  061%=      5-min Rain = 0
KCO2 250514Z 09008KT 14/07 A3009 RMK A01 T01390066  RH  061%=      5-min Rain = 0
KCO2 250515Z 09008KT 14/07 A3009 RMK A01 T01380066  RH  062%=      5-min Rain = 0
KCO2 250516Z 09008KT 14/07 A3009 RMK A01 T01380066  RH  062%=      5-min Rain = 0
KCO2 250517Z 09008KT 14/07 A3009 RMK A01 T01380066  RH  062%=      5-min Rain = 0
KCO2 250518Z 09007KT 14/07 A3009 RMK A01 T01380066  RH  062%=      5-min Rain = 0
KCO2 250519Z 09007KT 14/07 A3009 RMK A01 T01380066  RH  062%=      5-min Rain = 0
KCO2 250520Z 10007KT 14/07 A3009 RMK A01 T01380066  RH  062%=      5-min Rain = 0
KCO2 250521Z 10007KT 14/07 A3009 RMK A01 T01380066  RH  062%=      5-min Rain = 0
KCO2 250522Z 10007KT 14/07 A3009 RMK A01 T01370065  RH  062%=      5-min Rain = 0
KCO2 250523Z 10007KT 14/07 A3009 RMK A01 T01360066  RH  062%=      5-min Rain = 0
KCO2 250524Z 10007KT 14/07 A3009 RMK A01 T01350065  RH  063%=      5-min Rain = 0
KCO2 250525Z 10008KT 14/07 A3009 RMK A01 T01350066  RH  063%=      5-min Rain = 0
KCO2 250526Z 10008KT 14/07 A3009 RMK A01 T01350066  RH  063%=      5-min Rain = 0
KCO2 250527Z 10008KT 14/07 A3009 RMK A01 T01350066  RH  063%=      5-min Rain = 0
KCO2 250528Z 10008KT 13/07 A3009 RMK A01 T01340066  RH  063%=      5-min Rain = 0
KCO2 250529Z 10008KT 14/07 A3009 RMK A01 T01350066  RH  063%=      5-min Rain = 0
KCO2 250530Z 10007KT 14/07 A3009 RMK A01 T01350066  RH  063%=      5-min Rain = 0
KCO2 250531Z 10007KT 14/07 A3009 RMK A01 T01350066  RH  063%=      5-min Rain = 0
KCO2 250532Z 10006KT 13/07 A3009 RMK A01 T01340066  RH  064%=      5-min Rain = 0
KCO2 250533Z 10006KT 13/07 A3009 RMK A01 T01330066  RH  064%=      5-min Rain = 0
KCO2 250534Z 10006KT 13/07 A3009 RMK A01 T01320066  RH  064%=      5-min Rain = 0
KCO2 250535Z 10006KT 13/07 A3009 RMK A01 T01310065  RH  064%=      5-min Rain = 0
KCO2 250536Z 10006KT 13/07 A3009 RMK A01 T01290065  RH  065%=      5-min Rain = 0
KCO2 250537Z 10006KT 13/06 A3009 RMK A01 T01280064  RH  065%=      5-min Rain = 0
KCO2 250538Z 09006KT 13/06 A3009 RMK A01 T01270064  RH  065%=      5-min Rain = 0
KCO2 250539Z 09006KT 13/07 A3009 RMK A01 T01270065  RH  066%=      5-min Rain = 0
KCO2 250540Z 09006KT 13/07 A3009 RMK A01 T01270065  RH  066%=      5-min Rain = 0
KCO2 250541Z 09006KT 13/06 A3009 RMK A01 T01260064  RH  066%=      5-min Rain = 0
KCO2 250542Z 08005KT 13/07 A3009 RMK A01 T01270065  RH  066%=      5-min Rain = 0
KCO2 250543Z 08005KT 13/07 A3009 RMK A01 T01280066  RH  066%=      5-min Rain = 0
KCO2 250544Z 08005KT 13/07 A3009 RMK A01 T01280065  RH  066%=      5-min Rain = 0
KCO2 250545Z 08005KT 13/07 A3009 RMK A01 T01280065  RH  066%=      5-min Rain = 0
KCO2 250546Z 09005KT 13/07 A3009 RMK A01 T01280065  RH  066%=      5-min Rain = 0
KCO2 250547Z 09005KT 13/07 A3009 RMK A01 T01280066  RH  066%=      5-min Rain = 0
KCO2 250548Z 10005KT 13/07 A3009 RMK A01 T01270066  RH  066%=      5-min Rain = 0
KCO2 250549Z 10005KT 13/07 A301 RMK A01 T01270066  RH  067%=      5-min Rain = 0
KCO2 250550Z 10004KT 13/07 A301 RMK A01 T01270067  RH  067%=      5-min Rain = 0
KCO2 250551Z 10005KT 13/07 A301 RMK A01 T01260066  RH  067%=      5-min Rain = 0
KCO2 250552Z 09004KT 13/07 A301 RMK A01 T01260066  RH  067%=      5-min Rain = 0
KCO2 250553Z 09004KT 13/07 A301 RMK A01 T01260067  RH  067%=      5-min Rain = 0
KCO2 250554Z 10004KT 13/07 A301 RMK A01 T01260067  RH  067%=      5-min Rain = 0
KCO2 250555Z 11005KT 13/07 A301 RMK A01 T01270068  RH  067%=      5-min Rain = 0
KCO2 250556Z 11004KT 13/07 A301 RMK A01 T01280068  RH  067%=      5-min Rain = 0
KCO2 250557Z 10005KT 13/07 A301 RMK A01 T01280068  RH  067%=      5-min Rain = 0
KCO2 250558Z 10005KT 13/07 A301 RMK A01 T01280069  RH  067%=      5-min Rain = 0
KCO2 250559Z 09005KT 13/07 A301 RMK A01 T01280069  RH  067%=      5-min Rain = 0
KCO2 250600Z 09005KT 13/07 A301 RMK A01 T01280069  RH  067%=      5-min Rain = 0
KCO2 250601Z 09005KT 13/07 A301 RMK A01 T01280068  RH  067%=      5-min Rain = 0
KCO2 250602Z 09005KT 13/07 A301 RMK A01 T01280068  RH  067%=      5-min Rain = 0
KCO2 250603Z 10004KT 13/07 A301 RMK A01 T01290069  RH  067%=      5-min Rain = 0
KCO2 250604Z 10003KT 13/07 A301 RMK A01 T01290069  RH  067%=      5-min Rain = 0
KCO2 250605Z 09003KT 13/07 A301 RMK A01 T01290069  RH  067%=      5-min Rain = 0
KCO2 250606Z 09003KT 13/07 A301 RMK A01 T01290068  RH  067%=      5-min Rain = 0
KCO2 250607Z 08003KT 13/07 A301 RMK A01 T01270066  RH  066%=      5-min Rain = 0
KCO2 250608Z 07004KT 13/07 A301 RMK A01 T01260066  RH  067%=      5-min Rain = 0
KCO2 250609Z 08003KT 12/06 A301 RMK A01 T01230061  RH  066%=      5-min Rain = 0
KCO2 250610Z 07002KT 12/06 A301 RMK A01 T01170057  RH  066%=      5-min Rain = 0
KCO2 250611Z 06002KT 11/06 A301 RMK A01 T01130058  RH  069%=      5-min Rain = 0
KCO2 250612Z 02001KT 11/06 A301 RMK A01 T01110059  RH  070%=      5-min Rain = 0
KCO2 250613Z 00001KT 11/06 A301 RMK A01 T01070056  RH  070%=      5-min Rain = 0
KCO2 250614Z 03001KT 10/06 A301 RMK A01 T01040055  RH  072%=      5-min Rain = 0
KCO2 250615Z 05003KT 10/06 A301 RMK A01 T01030057  RH  073%=      5-min Rain = 0
KCO2 250616Z 06005KT 10/06 A301 RMK A01 T01020058  RH  074%=      5-min Rain = 0
KCO2 250617Z 07006KT 10/06 A301 RMK A01 T01020058  RH  074%=      5-min Rain = 0
KCO2 250618Z 07006KT 10/06 A301 RMK A01 T01020061  RH  076%=      5-min Rain = 0
KCO2 250619Z 07005KT 11/07 A301 RMK A01 T01060065  RH  076%=      5-min Rain = 0
KCO2 250620Z 06003KT 11/07 A301 RMK A01 T01080065  RH  075%=      5-min Rain = 0
KCO2 250621Z 03001KT 11/06 A301 RMK A01 T01090064  RH  074%=      5-min Rain = 0
KCO2 250622Z 33001KT 11/06 A301 RMK A01 T01060058  RH  072%=      5-min Rain = 0
KCO2 250623Z 31002KT 10/05 A301 RMK A01 T00990053  RH  073%=      5-min Rain = 0
KCO2 250624Z 30003KT 10/06 A301 RMK A01 T00960055  RH  075%=      5-min Rain = 0
KCO2 250625Z 30005KT 09/05 A301 RMK A01 T00940054  RH  076%=      5-min Rain = 0
KCO2 250626Z 30006KT 09/06 A3011 RMK A01 T00930056  RH  078%=      5-min Rain = 0
KCO2 250627Z 30007KT 09/06 A3011 RMK A01 T00930057  RH  078%=      5-min Rain = 0
KCO2 250628Z 31006KT 09/06 A3011 RMK A01 T00930057  RH  078%=      5-min Rain = 0
KCO2 250629Z 33005KT 09/06 A3011 RMK A01 T00930058  RH  079%=      5-min Rain = 0
KCO2 250630Z 35004KT 09/06 A3011 RMK A01 T00940059  RH  078%=      5-min Rain = 0
KCO2 250631Z 01004KT 09/06 A301 RMK A01 T00940057  RH  078%=      5-min Rain = 0
KCO2 250632Z 03004KT 09/06 A301 RMK A01 T00940058  RH  079%=      5-min Rain = 0
KCO2 250633Z 05003KT 10/06 A301 RMK A01 T00950060  RH  079%=      5-min Rain = 0
KCO2 250634Z 05003KT 10/06 A301 RMK A01 T00960060  RH  078%=      5-min Rain = 0
KCO2 250635Z 04004KT 10/06 A301 RMK A01 T00970060  RH  078%=      5-min Rain = 0
KCO2 250636Z 02004KT 10/06 A301 RMK A01 T00980061  RH  077%=      5-min Rain = 0
KCO2 250637Z 02005KT 10/06 A301 RMK A01 T00990060  RH  077%=      5-min Rain = 0
KCO2 250638Z 02005KT 10/06 A301 RMK A01 T00990061  RH  077%=      5-min Rain = 0
KCO2 250639Z 03005KT 10/06 A3011 RMK A01 T00990062  RH  077%=      5-min Rain = 0
KCO2 250640Z 03005KT 10/06 A3011 RMK A01 T01010063  RH  077%=      5-min Rain = 0
KCO2 250641Z 05004KT 10/07 A3011 RMK A01 T01040066  RH  077%=      5-min Rain = 0
KCO2 250642Z 06004KT 11/07 A301 RMK A01 T01080067  RH  076%=      5-min Rain = 0
KCO2 250643Z 06003KT 11/07 A301 RMK A01 T01110068  RH  075%=      5-min Rain = 0
KCO2 250644Z 07004KT 12/07 A301 RMK A01 T01150068  RH  073%=      5-min Rain = 0
KCO2 250645Z 08004KT 12/07 A301 RMK A01 T01180069  RH  072%=      5-min Rain = 0
KCO2 250646Z 08004KT 12/07 A301 RMK A01 T01210069  RH  070%=      5-min Rain = 0
KCO2 250647Z 08004KT 12/07 A301 RMK A01 T01230070  RH  070%=      5-min Rain = 0
KCO2 250648Z 09004KT 13/07 A301 RMK A01 T01250070  RH  069%=      5-min Rain = 0
KCO2 250649Z 09004KT 13/07 A301 RMK A01 T01260069  RH  068%=      5-min Rain = 0
KCO2 250650Z 09005KT 13/07 A301 RMK A01 T01250069  RH  068%=      5-min Rain = 0
KCO2 250651Z 09004KT 12/07 A301 RMK A01 T01230068  RH  069%=      5-min Rain = 0
KCO2 250652Z 08004KT 12/07 A301 RMK A01 T01220068  RH  070%=      5-min Rain = 0
KCO2 250653Z 08005KT 12/07 A301 RMK A01 T01220069  RH  070%=      5-min Rain = 0
KCO2 250654Z 08005KT 12/07 A301 RMK A01 T01220068  RH  070%=      5-min Rain = 0
KCO2 250655Z 08004KT 12/07 A301 RMK A01 T01230068  RH  069%=      5-min Rain = 0
KCO2 250656Z 08004KT 12/07 A301 RMK A01 T01220067  RH  069%=      5-min Rain = 0
KCO2 250657Z 08004KT 12/07 A3011 RMK A01 T01210067  RH  070%=      5-min Rain = 0
KCO2 250658Z 07004KT 12/07 A3011 RMK A01 T01200067  RH  070%=      5-min Rain = 0
KCO2 250659Z 06003KT 12/07 A3011 RMK A01 T01180066  RH  071%=      5-min Rain = 0
KCO2 250700Z 06004KT 12/07 A3011 RMK A01 T01160066  RH  071%=      5-min Rain = 0
KCO2 250701Z 05004KT 11/06 A3011 RMK A01 T01130064  RH  072%=      5-min Rain = 0
KCO2 250702Z 04003KT 11/06 A3011 RMK A01 T01100063  RH  072%=      5-min Rain = 0
KCO2 250703Z 05003KT 11/06 A3011 RMK A01 T01080063  RH  074%=      5-min Rain = 0
KCO2 250704Z 07004KT 11/06 A3011 RMK A01 T01070063  RH  074%=      5-min Rain = 0
KCO2 250705Z 08004KT 11/06 A3011 RMK A01 T01080063  RH  074%=      5-min Rain = 0
KCO2 250706Z 08005KT 11/06 A3011 RMK A01 T01070064  RH  075%=      5-min Rain = 0
KCO2 250707Z 08005KT 11/06 A3011 RMK A01 T01070064  RH  075%=      5-min Rain = 0
KCO2 250708Z 08005KT 11/06 A301 RMK A01 T01080064  RH  074%=      5-min Rain = 0
KCO2 250709Z 08005KT 11/07 A301 RMK A01 T01090065  RH  074%=      5-min Rain = 0
KCO2 250710Z 08005KT 11/07 A3011 RMK A01 T01110066  RH  074%=      5-min Rain = 0
KCO2 250711Z 07005KT 11/07 A3011 RMK A01 T01120067  RH  073%=      5-min Rain = 0
KCO2 250712Z 07005KT 11/07 A3011 RMK A01 T01140067  RH  073%=      5-min Rain = 0
KCO2 250713Z 07004KT 11/07 A3011 RMK A01 T01140066  RH  072%=      5-min Rain = 0
KCO2 250714Z 08004KT 11/06 A3011 RMK A01 T01130064  RH  072%=      5-min Rain = 0
KCO2 250715Z 08004KT 11/07 A3011 RMK A01 T01120065  RH  073%=      5-min Rain = 0
KCO2 250716Z 08004KT 11/07 A3011 RMK A01 T01120067  RH  074%=      5-min Rain = 0
KCO2 250717Z 08004KT 11/07 A3011 RMK A01 T01140068  RH  073%=      5-min Rain = 0
KCO2 250718Z 08004KT 12/07 A3011 RMK A01 T01160068  RH  073%=      5-min Rain = 0
KCO2 250719Z 08004KT 12/07 A3011 RMK A01 T01170068  RH  072%=      5-min Rain = 0
KCO2 250720Z 08004KT 12/07 A3011 RMK A01 T01160066  RH  072%=      5-min Rain = 0
KCO2 250721Z 08004KT 11/07 A3011 RMK A01 T01140065  RH  072%=      5-min Rain = 0
KCO2 250722Z 08004KT 11/07 A3011 RMK A01 T01130065  RH  073%=      5-min Rain = 0
KCO2 250723Z 08004KT 11/07 A3011 RMK A01 T01120067  RH  074%=      5-min Rain = 0
KCO2 250724Z 09003KT 11/07 A3011 RMK A01 T01120068  RH  074%=      5-min Rain = 0
KCO2 250725Z 09003KT 11/07 A3011 RMK A01 T01130069  RH  074%=      5-min Rain = 0
KCO2 250726Z 09003KT 11/07 A3011 RMK A01 T01140069  RH  074%=      5-min Rain = 0
KCO2 250727Z 09003KT 12/07 A3011 RMK A01 T01150069  RH  073%=      5-min Rain = 0
KCO2 250728Z 09003KT 12/07 A3011 RMK A01 T01160068  RH  073%=      5-min Rain = 0
KCO2 250729Z 09003KT 12/07 A3011 RMK A01 T01160068  RH  073%=      5-min Rain = 0
KCO2 250730Z 08002KT 12/07 A3011 RMK A01 T01160066  RH  072%=      5-min Rain = 0
KCO2 250731Z 07002KT 11/06 A3011 RMK A01 T01140064  RH  071%=      5-min Rain = 0
KCO2 250732Z 06001KT 11/06 A3011 RMK A01 T01120064  RH  072%=      5-min Rain = 0
KCO2 250733Z 06001KT 11/06 A3011 RMK A01 T01090064  RH  074%=      5-min Rain = 0
KCO2 250734Z 07001KT 11/06 A3011 RMK A01 T01070064  RH  075%=      5-min Rain = 0
KCO2 250735Z 10002KT 11/06 A3011 RMK A01 T01050064  RH  076%=      5-min Rain = 0
KCO2 250736Z 11002KT 11/07 A3011 RMK A01 T01050066  RH  077%=      5-min Rain = 0
KCO2 250737Z 12002KT 11/07 A3011 RMK A01 T01050067  RH  077%=      5-min Rain = 0
KCO2 250738Z 13002KT 11/07 A3011 RMK A01 T01050066  RH  077%=      5-min Rain = 0
KCO2 250739Z 13002KT 11/07 A3011 RMK A01 T01050066  RH  077%=      5-min Rain = 0
KCO2 250740Z 13002KT 10/07 A3011 RMK A01 T01040066  RH  077%=      5-min Rain = 0
KCO2 250741Z 13001KT 10/07 A3011 RMK A01 T01030066  RH  078%=      5-min Rain = 0
KCO2 250742Z 12001KT 10/07 A3011 RMK A01 T01030066  RH  078%=      5-min Rain = 0
KCO2 250743Z 11001KT 10/07 A3011 RMK A01 T01020065  RH  078%=      5-min Rain = 0
KCO2 250744Z 09000KT 10/06 A3011 RMK A01 T01010059  RH  075%=      5-min Rain = 0
KCO2 250745Z 03000KT 10/06 A3011 RMK A01 T01010058  RH  075%=      5-min Rain = 0
KCO2 250746Z 01001KT 10/06 A3011 RMK A01 T01010062  RH  077%=      5-min Rain = 0
KCO2 250747Z 34001KT 10/06 A3012 RMK A01 T01010063  RH  077%=      5-min Rain = 0
KCO2 250748Z 33001KT 10/06 A3012 RMK A01 T01000063  RH  078%=      5-min Rain = 0
KCO2 250749Z 31002KT 10/06 A3012 RMK A01 T00970060  RH  078%=      5-min Rain = 0
KCO2 250750Z 31002KT 10/06 A3012 RMK A01 T00950062  RH  080%=      5-min Rain = 0
KCO2 250751Z 31002KT 10/06 A3012 RMK A01 T00950063  RH  081%=      5-min Rain = 0
KCO2 250752Z 31002KT 09/06 A3012 RMK A01 T00940062  RH  081%=      5-min Rain = 0
KCO2 250753Z 32001KT 09/06 A3012 RMK A01 T00930062  RH  081%=      5-min Rain = 0
KCO2 250754Z 32001KT 09/06 A3012 RMK A01 T00930064  RH  082%=      5-min Rain = 0
KCO2 250755Z 33000KT 09/06 A3012 RMK A01 T00930063  RH  082%=      5-min Rain = 0
KCO2 250756Z 00000KT 09/06 A3012 RMK A01 T00920062  RH  082%=      5-min Rain = 0
KCO2 250757Z 11000KT 09/07 A3012 RMK A01 T00930065  RH  083%=      5-min Rain = 0
KCO2 250758Z 12002KT 09/07 A3011 RMK A01 T00940065  RH  082%=      5-min Rain = 0
KCO2 250759Z 14003KT 10/07 A3011 RMK A01 T00950066  RH  082%=      5-min Rain = 0
KCO2 250800Z 15003KT 10/07 A3011 RMK A01 T00970068  RH  082%=      5-min Rain = 0
KCO2 250801Z 16004KT 10/07 A3011 RMK A01 T00990069  RH  081%=      5-min Rain = 0
KCO2 250802Z 16004KT 10/07 A3011 RMK A01 T01000066  RH  079%=      5-min Rain = 0
KCO2 250803Z 16004KT 10/07 A3011 RMK A01 T00980065  RH  080%=      5-min Rain = 0
KCO2 250804Z 16004KT 10/07 A3011 RMK A01 T00980067  RH  081%=      5-min Rain = 0
KCO2 250805Z 16004KT 10/07 A3011 RMK A01 T00990070  RH  082%=      5-min Rain = 0
KCO2 250806Z 15004KT 10/07 A3011 RMK A01 T01010070  RH  081%=      5-min Rain = 0
KCO2 250807Z 14004KT 10/07 A3011 RMK A01 T01030072  RH  081%=      5-min Rain = 0
KCO2 250808Z 14003KT 10/07 A3011 RMK A01 T01040071  RH  080%=      5-min Rain = 0
KCO2 250809Z 14003KT 10/07 A3012 RMK A01 T01040069  RH  079%=      5-min Rain = 0
KCO2 250810Z 14003KT 10/07 A3012 RMK A01 T01040069  RH  079%=      5-min Rain = 0
KCO2 250811Z 14003KT 10/07 A3012 RMK A01 T01040069  RH  079%=      5-min Rain = 0
KCO2 250812Z 13004KT 10/07 A3011 RMK A01 T01040069  RH  079%=      5-min Rain = 0
KCO2 250813Z 13004KT 11/07 A3011 RMK A01 T01050071  RH  079%=      5-min Rain = 0
KCO2 250814Z 13003KT 11/07 A3011 RMK A01 T01070072  RH  079%=      5-min Rain = 0
KCO2 250815Z 13003KT 11/07 A3012 RMK A01 T01080071  RH  078%=      5-min Rain = 0
KCO2 250816Z 12002KT 11/07 A3012 RMK A01 T01080070  RH  077%=      5-min Rain = 0
KCO2 250817Z 11001KT 11/07 A3012 RMK A01 T01060066  RH  076%=      5-min Rain = 0
KCO2 250818Z 00000KT 10/06 A3012 RMK A01 T01020061  RH  076%=      5-min Rain = 0
KCO2 250819Z 36001KT 09/05 A3012 RMK A01 T00940054  RH  076%=      5-min Rain = 0
KCO2 250820Z 35002KT 09/06 A3012 RMK A01 T00890055  RH  079%=      5-min Rain = 0
KCO2 250821Z 01002KT 09/06 A3012 RMK A01 T00880059  RH  082%=      5-min Rain = 0
KCO2 250822Z 02002KT 09/06 A3012 RMK A01 T00880062  RH  084%=      5-min Rain = 0
KCO2 250823Z 02002KT 09/06 A3012 RMK A01 T00890062  RH  083%=      5-min Rain = 0
KCO2 250824Z 00003KT 09/06 A3013 RMK A01 T00900060  RH  082%=      5-min Rain = 0
KCO2 250825Z 34005KT 09/06 A3013 RMK A01 T00880059  RH  082%=      5-min Rain = 0
KCO2 250826Z 34008KT 09/06 A3013 RMK A01 T00850057  RH  083%=      5-min Rain = 0
KCO2 250827Z 34010KT 08/06 A3013 RMK A01 T00840058  RH  084%=      5-min Rain = 0
KCO2 250828Z 34010KT 08/06 A3013 RMK A01 T00840060  RH  085%=      5-min Rain = 0
KCO2 250829Z 35009KT 08/06 A3014 RMK A01 T00840062  RH  086%=      5-min Rain = 0
KCO2 250830Z 36008KT 09/06 A3013 RMK A01 T00860064  RH  086%=      5-min Rain = 0
KCO2 250831Z 01006KT 09/07 A3013 RMK A01 T00860065  RH  086%=      5-min Rain = 0
KCO2 250832Z 02005KT 09/07 A3013 RMK A01 T00880066  RH  086%=      5-min Rain = 0
KCO2 250833Z 02004KT 09/07 A3013 RMK A01 T00890067  RH  086%=      5-min Rain = 0
KCO2 250834Z 03004KT 09/07 A3013 RMK A01 T00900067  RH  085%=      5-min Rain = 0
KCO2 250835Z 02003KT 09/07 A3013 RMK A01 T00910067  RH  085%=      5-min Rain = 0
KCO2 250836Z 01003KT 09/07 A3013 RMK A01 T00910067  RH  085%=      5-min Rain = 0
KCO2 250837Z 01004KT 09/07 A3013 RMK A01 T00920067  RH  085%=      5-min Rain = 0
KCO2 250838Z 00005KT 09/07 A3013 RMK A01 T00920068  RH  085%=      5-min Rain = 0
KCO2 250839Z 00006KT 09/07 A3013 RMK A01 T00930067  RH  084%=      5-min Rain = 0
KCO2 250840Z 00007KT 09/07 A3013 RMK A01 T00920066  RH  084%=      5-min Rain = 0
KCO2 250841Z 00007KT 09/07 A3013 RMK A01 T00910066  RH  084%=      5-min Rain = 0
KCO2 250842Z 00007KT 09/07 A3013 RMK A01 T00910066  RH  084%=      5-min Rain = 0
KCO2 250843Z 00008KT 09/07 A3013 RMK A01 T00910066  RH  084%=      5-min Rain = 0
KCO2 250844Z 00008KT 09/07 A3013 RMK A01 T00910066  RH  084%=      5-min Rain = 0
KCO2 250845Z 00008KT 09/07 A3013 RMK A01 T00910067  RH  085%=      5-min Rain = 0
KCO2 250846Z 01007KT 09/07 A3013 RMK A01 T00920067  RH  085%=      5-min Rain = 0
KCO2 250847Z 02007KT 09/07 A3013 RMK A01 T00930069  RH  085%=      5-min Rain = 0
KCO2 250848Z 02006KT 09/07 A3013 RMK A01 T00940069  RH  084%=      5-min Rain = 0
KCO2 250849Z 03006KT 09/07 A3013 RMK A01 T00940068  RH  084%=      5-min Rain = 0
KCO2 250850Z 03006KT 10/07 A3013 RMK A01 T00950068  RH  083%=      5-min Rain = 0
KCO2 250851Z 03007KT 10/07 A3013 RMK A01 T00950068  RH  084%=      5-min Rain = 0
KCO2 250852Z 02007KT 10/07 A3013 RMK A01 T00950068  RH  084%=      5-min Rain = 0
KCO2 250853Z 02007KT 10/07 A3013 RMK A01 T00950068  RH  084%=      5-min Rain = 0
KCO2 250854Z 02008KT 09/07 A3013 RMK A01 T00940068  RH  084%=      5-min Rain = 0
KCO2 250855Z 02007KT 09/07 A3013 RMK A01 T00940068  RH  084%=      5-min Rain = 0
KCO2 250856Z 02007KT 09/07 A3013 RMK A01 T00940069  RH  084%=      5-min Rain = 0
KCO2 250857Z 03007KT 09/07 A3013 RMK A01 T00940069  RH  084%=      5-min Rain = 0
KCO2 250858Z 03007KT 09/07 A3013 RMK A01 T00940070  RH  085%=      5-min Rain = 0
KCO2 250859Z 03008KT 10/07 A3013 RMK A01 T00950070  RH  084%=      5-min Rain = 0
KCO2 250900Z 03008KT 10/07 A3013 RMK A01 T00960071  RH  084%=      5-min Rain = 0
KCO2 250901Z 04008KT 10/07 A3013 RMK A01 T00970071  RH  084%=      5-min Rain = 0
KCO2 250902Z 04008KT 10/07 A3013 RMK A01 T00980073  RH  084%=      5-min Rain = 0
KCO2 250903Z 04007KT 10/07 A3013 RMK A01 T00990074  RH  084%=      5-min Rain = 0
KCO2 250904Z 04008KT 10/07 A3013 RMK A01 T01000074  RH  084%=      5-min Rain = 0
KCO2 250905Z 04008KT 10/08 A3013 RMK A01 T01010075  RH  084%=      5-min Rain = 0
KCO2 250906Z 04008KT 10/08 A3013 RMK A01 T01020075  RH  083%=      5-min Rain = 0
KCO2 250907Z 04008KT 10/07 A3013 RMK A01 T01020074  RH  083%=      5-min Rain = 0
KCO2 250908Z 04007KT 10/07 A3013 RMK A01 T01030074  RH  083%=      5-min Rain = 0
KCO2 250909Z 05007KT 10/08 A3013 RMK A01 T01030075  RH  082%=      5-min Rain = 0
KCO2 250910Z 05007KT 10/07 A3013 RMK A01 T01030074  RH  082%=      5-min Rain = 0
KCO2 250911Z 05007KT 10/07 A3013 RMK A01 T01040074  RH  082%=      5-min Rain = 0
KCO2 250912Z 05007KT 10/07 A3012 RMK A01 T01040074  RH  082%=      5-min Rain = 0
KCO2 250913Z 05007KT 10/07 A3012 RMK A01 T01040074  RH  082%=      5-min Rain = 0
KCO2 250914Z 06007KT 10/07 A3012 RMK A01 T01030073  RH  082%=      5-min Rain = 0
KCO2 250915Z 06007KT 10/07 A3012 RMK A01 T01030073  RH  082%=      5-min Rain = 0
KCO2 250916Z 06007KT 10/07 A3012 RMK A01 T01030073  RH  082%=      5-min Rain = 0
KCO2 250917Z 05007KT 10/07 A3012 RMK A01 T01020073  RH  082%=      5-min Rain = 0
KCO2 250918Z 06007KT 10/07 A3012 RMK A01 T01020073  RH  082%=      5-min Rain = 0
KCO2 250919Z 06007KT 10/07 A3012 RMK A01 T01020073  RH  082%=      5-min Rain = 0
KCO2 250920Z 06008KT 10/07 A3012 RMK A01 T01010073  RH  082%=      5-min Rain = 0
KCO2 250921Z 06008KT 10/07 A3012 RMK A01 T01010073  RH  082%=      5-min Rain = 0
KCO2 250922Z 05008KT 10/07 A3012 RMK A01 T01020073  RH  082%=      5-min Rain = 0
KCO2 250923Z 05008KT 10/07 A3012 RMK A01 T01010073  RH  082%=      5-min Rain = 0
KCO2 250924Z 05008KT 10/07 A3012 RMK A01 T01020073  RH  082%=      5-min Rain = 0
KCO2 250925Z 05008KT 10/07 A3013 RMK A01 T01010072  RH  082%=      5-min Rain = 0
KCO2 250926Z 05008KT 10/07 A3013 RMK A01 T01000072  RH  083%=      5-min Rain = 0
KCO2 250927Z 05008KT 10/07 A3013 RMK A01 T01000073  RH  083%=      5-min Rain = 0
KCO2 250928Z 05008KT 10/07 A3013 RMK A01 T01000073  RH  083%=      5-min Rain = 0
KCO2 250929Z 05008KT 10/07 A3013 RMK A01 T01000073  RH  083%=      5-min Rain = 0
KCO2 250930Z 05007KT 10/07 A3013 RMK A01 T01010074  RH  083%=      5-min Rain = 0
KCO2 250931Z 05007KT 10/07 A3013 RMK A01 T01020074  RH  083%=      5-min Rain = 0
KCO2 250932Z 05007KT 10/08 A3013 RMK A01 T01020075  RH  083%=      5-min Rain = 0
KCO2 250933Z 06007KT 10/08 A3013 RMK A01 T01030075  RH  083%=      5-min Rain = 0
KCO2 250934Z 06007KT 10/08 A3012 RMK A01 T01030075  RH  082%=      5-min Rain = 0
KCO2 250935Z 05007KT 10/08 A3012 RMK A01 T01040075  RH  082%=      5-min Rain = 0
KCO2 250936Z 05007KT 10/08 A3013 RMK A01 T01040075  RH  082%=      5-min Rain = 0
KCO2 250937Z 05008KT 10/08 A3013 RMK A01 T01040075  RH  082%=      5-min Rain = 0
KCO2 250938Z 05008KT 10/08 A3013 RMK A01 T01040075  RH  083%=      5-min Rain = 0
KCO2 250939Z 05008KT 10/08 A3013 RMK A01 T01040076  RH  083%=      5-min Rain = 0
KCO2 250940Z 04007KT 10/08 A3013 RMK A01 T01040076  RH  082%=      5-min Rain = 0
KCO2 250941Z 04007KT 11/08 A3013 RMK A01 T01050076  RH  082%=      5-min Rain = 0
KCO2 250942Z 04006KT 11/08 A3013 RMK A01 T01050076  RH  082%=      5-min Rain = 0
KCO2 250943Z 04006KT 10/08 A3013 RMK A01 T01040076  RH  083%=      5-min Rain = 0
KCO2 250944Z 04007KT 10/08 A3013 RMK A01 T01040076  RH  083%=      5-min Rain = 0
KCO2 250945Z 05007KT 10/08 A3013 RMK A01 T01030075  RH  083%=      5-min Rain = 0
KCO2 250946Z 05007KT 10/08 A3013 RMK A01 T01030075  RH  083%=      5-min Rain = 0
KCO2 250947Z 05006KT 10/08 A3013 RMK A01 T01030075  RH  083%=      5-min Rain = 0
KCO2 250948Z 06006KT 10/08 A3013 RMK A01 T01030075  RH  083%=      5-min Rain = 0
KCO2 250949Z 06006KT 10/08 A3013 RMK A01 T01040076  RH  083%=      5-min Rain = 0
KCO2 250950Z 06006KT 10/08 A3013 RMK A01 T01040075  RH  082%=      5-min Rain = 0
KCO2 250951Z 06007KT 10/08 A3013 RMK A01 T01040075  RH  082%=      5-min Rain = 0
KCO2 250952Z 06007KT 10/08 A3013 RMK A01 T01040075  RH  082%=      5-min Rain = 0
KCO2 250953Z 06007KT 10/07 A3013 RMK A01 T01030074  RH  082%=      5-min Rain = 0
KCO2 250954Z 06007KT 10/08 A3013 RMK A01 T01030075  RH  083%=      5-min Rain = 0
KCO2 250955Z 06007KT 10/07 A3013 RMK A01 T01020074  RH  083%=      5-min Rain = 0
KCO2 250956Z 06007KT 10/07 A3013 RMK A01 T01020074  RH  083%=      5-min Rain = 0
KCO2 250957Z 06007KT 10/07 A3013 RMK A01 T01020074  RH  083%=      5-min Rain = 0
KCO2 250958Z 05007KT 10/07 A3013 RMK A01 T01010074  RH  083%=      5-min Rain = 0
KCO2 250959Z 05006KT 10/07 A3013 RMK A01 T01010074  RH  083%=      5-min Rain = 0
KCO2 251000Z 05006KT 10/07 A3013 RMK A01 T01010074  RH  083%=      5-min Rain = 0
KCO2 251001Z 05006KT 10/07 A3013 RMK A01 T01000074  RH  084%=      5-min Rain = 0
KCO2 251002Z 05006KT 10/07 A3013 RMK A01 T01000074  RH  084%=      5-min Rain = 0
KCO2 251003Z 04006KT 10/07 A3013 RMK A01 T00990074  RH  084%=      5-min Rain = 0
KCO2 251004Z 04006KT 10/07 A3013 RMK A01 T00990074  RH  084%=      5-min Rain = 0
KCO2 251005Z 04006KT 10/07 A3013 RMK A01 T00990073  RH  084%=      5-min Rain = 0
KCO2 251006Z 04006KT 10/07 A3013 RMK A01 T00980073  RH  084%=      5-min Rain = 0
KCO2 251007Z 04006KT 10/07 A3013 RMK A01 T00980073  RH  084%=      5-min Rain = 0
KCO2 251008Z 04006KT 10/07 A3013 RMK A01 T00980073  RH  085%=      5-min Rain = 0
KCO2 251009Z 04005KT 10/07 A3013 RMK A01 T00970073  RH  085%=      5-min Rain = 0
KCO2 251010Z 03006KT 10/07 A3013 RMK A01 T00970072  RH  085%=      5-min Rain = 0
KCO2 251011Z 03005KT 10/07 A3013 RMK A01 T00970072  RH  085%=      5-min Rain = 0
KCO2 251012Z 03006KT 10/07 A3013 RMK A01 T00960072  RH  085%=      5-min Rain = 0
KCO2 251013Z 02007KT 10/07 A3014 RMK A01 T00960072  RH  085%=      5-min Rain = 0
KCO2 251014Z 02007KT 10/07 A3014 RMK A01 T00950071  RH  085%=      5-min Rain = 0
KCO2 251015Z 02008KT 09/07 A3014 RMK A01 T00940071  RH  085%=      5-min Rain = 0
KCO2 251016Z 01008KT 09/07 A3014 RMK A01 T00940071  RH  086%=      5-min Rain = 0
KCO2 251017Z 00007KT 09/07 A3014 RMK A01 T00930070  RH  086%=      5-min Rain = 0
KCO2 251018Z 01007KT 09/07 A3014 RMK A01 T00920070  RH  086%=      5-min Rain = 0
KCO2 251019Z 01007KT 09/07 A3014 RMK A01 T00900069  RH  086%=      5-min Rain = 0
KCO2 251020Z 01006KT 09/07 A3014 RMK A01 T00890069  RH  087%=      5-min Rain = 0
KCO2 251021Z 02006KT 09/07 A3014 RMK A01 T00890069  RH  087%=      5-min Rain = 0
KCO2 251022Z 02007KT 09/07 A3014 RMK A01 T00890069  RH  087%=      5-min Rain = 0
KCO2 251023Z 02006KT 09/07 A3014 RMK A01 T00890069  RH  087%=      5-min Rain = 0
KCO2 251024Z 02006KT 09/07 A3014 RMK A01 T00890069  RH  087%=      5-min Rain = 0
KCO2 251025Z 02006KT 09/07 A3014 RMK A01 T00890068  RH  087%=      5-min Rain = 0
KCO2 251026Z 02006KT 09/07 A3014 RMK A01 T00880068  RH  087%=      5-min Rain = 0
KCO2 251027Z 02006KT 09/07 A3014 RMK A01 T00880069  RH  088%=      5-min Rain = 0
KCO2 251028Z 02006KT 09/07 A3014 RMK A01 T00880069  RH  088%=      5-min Rain = 0
KCO2 251029Z 02007KT 09/07 A3014 RMK A01 T00880069  RH  088%=      5-min Rain = 0
KCO2 251030Z 02007KT 09/07 A3014 RMK A01 T00880069  RH  088%=      5-min Rain = 0
KCO2 251031Z 02007KT 09/07 A3014 RMK A01 T00890070  RH  088%=      5-min Rain = 0
KCO2 251032Z 02007KT 09/07 A3014 RMK A01 T00890070  RH  088%=      5-min Rain = 0
KCO2 251033Z 02007KT 09/07 A3014 RMK A01 T00900071  RH  088%=      5-min Rain = 0
KCO2 251034Z 02007KT 09/07 A3014 RMK A01 T00900070  RH  088%=      5-min Rain = 0
KCO2 251035Z 02008KT 09/07 A3014 RMK A01 T00900070  RH  087%=      5-min Rain = 0
KCO2 251036Z 02008KT 09/07 A3014 RMK A01 T00890070  RH  088%=      5-min Rain = 0
KCO2 251037Z 02007KT 09/07 A3014 RMK A01 T00890070  RH  088%=      5-min Rain = 0
KCO2 251038Z 02007KT 09/07 A3014 RMK A01 T00890070  RH  088%=      5-min Rain = 0
KCO2 251039Z 02007KT 09/07 A3014 RMK A01 T00890070  RH  088%=      5-min Rain = 0
KCO2 251040Z 03007KT 09/07 A3014 RMK A01 T00890070  RH  088%=      5-min Rain = 0
KCO2 251041Z 03007KT 09/07 A3014 RMK A01 T00890070  RH  088%=      5-min Rain = 0
KCO2 251042Z 03007KT 09/07 A3014 RMK A01 T00890069  RH  088%=      5-min Rain = 0
KCO2 251043Z 03007KT 09/07 A3014 RMK A01 T00890070  RH  088%=      5-min Rain = 0
KCO2 251044Z 04008KT 09/07 A3014 RMK A01 T00890070  RH  088%=      5-min Rain = 0
KCO2 251045Z 04008KT 09/07 A3014 RMK A01 T00900071  RH  088%=      5-min Rain = 0
KCO2 251046Z 04008KT 09/07 A3014 RMK A01 T00910071  RH  088%=      5-min Rain = 0
KCO2 251047Z 04008KT 09/07 A3014 RMK A01 T00910072  RH  088%=      5-min Rain = 0
KCO2 251048Z 04008KT 09/07 A3014 RMK A01 T00920073  RH  088%=      5-min Rain = 0
KCO2 251049Z 04008KT 09/07 A3014 RMK A01 T00940074  RH  088%=      5-min Rain = 0
KCO2 251050Z 05008KT 10/08 A3014 RMK A01 T00960075  RH  087%=      5-min Rain = 0
KCO2 251051Z 04008KT 10/08 A3014 RMK A01 T00970075  RH  086%=      5-min Rain = 0
KCO2 251052Z 05008KT 10/08 A3014 RMK A01 T00990076  RH  086%=      5-min Rain = 0
KCO2 251053Z 05008KT 10/08 A3014 RMK A01 T01000077  RH  085%=      5-min Rain = 0
KCO2 251054Z 05008KT 10/08 A3014 RMK A01 T01010077  RH  085%=      5-min Rain = 0
KCO2 251055Z 05008KT 10/08 A3014 RMK A01 T01020077  RH  085%=      5-min Rain = 0
KCO2 251056Z 05008KT 10/08 A3014 RMK A01 T01030077  RH  084%=      5-min Rain = 0
KCO2 251057Z 05008KT 10/08 A3014 RMK A01 T01030076  RH  084%=      5-min Rain = 0
KCO2 251058Z 05009KT 10/08 A3014 RMK A01 T01030076  RH  084%=      5-min Rain = 0
KCO2 251059Z 05008KT 10/08 A3014 RMK A01 T01030076  RH  083%=      5-min Rain = 0
KCO2 251100Z 05008KT 10/08 A3014 RMK A01 T01030076  RH  083%=      5-min Rain = 0
KCO2 251101Z 05009KT 10/08 A3014 RMK A01 T01030076  RH  083%=      5-min Rain = 0
KCO2 251102Z 05008KT 10/08 A3014 RMK A01 T01040076  RH  083%=      5-min Rain = 0
KCO2 251103Z 05009KT 10/08 A3014 RMK A01 T01040076  RH  083%=      5-min Rain = 0
KCO2 251104Z 05009KT 10/08 A3014 RMK A01 T01040076  RH  082%=      5-min Rain = 0
KCO2 251105Z 05009KT 11/08 A3014 RMK A01 T01050076  RH  082%=      5-min Rain = 0
KCO2 251106Z 05009KT 11/08 A3014 RMK A01 T01050075  RH  082%=      5-min Rain = 0
KCO2 251107Z 04009KT 11/08 A3015 RMK A01 T01050075  RH  082%=      5-min Rain = 0
KCO2 251108Z 05008KT 11/08 A3015 RMK A01 T01050075  RH  082%=      5-min Rain = 0
KCO2 251109Z 04009KT 10/08 A3015 RMK A01 T01040075  RH  082%=      5-min Rain = 0
KCO2 251110Z 04009KT 10/08 A3015 RMK A01 T01040075  RH  082%=      5-min Rain = 0
KCO2 251111Z 04008KT 10/08 A3015 RMK A01 T01040075  RH  082%=      5-min Rain = 0
KCO2 251112Z 05009KT 10/07 A3015 RMK A01 T01040074  RH  082%=      5-min Rain = 0
KCO2 251113Z 05009KT 10/08 A3015 RMK A01 T01040075  RH  082%=      5-min Rain = 0
KCO2 251114Z 05008KT 11/07 A3015 RMK A01 T01050074  RH  082%=      5-min Rain = 0
KCO2 251115Z 05008KT 10/07 A3015 RMK A01 T01040074  RH  081%=      5-min Rain = 0
KCO2 251116Z 05009KT 10/07 A3015 RMK A01 T01040074  RH  082%=      5-min Rain = 0
KCO2 251117Z 05008KT 10/07 A3015 RMK A01 T01040074  RH  082%=      5-min Rain = 0
KCO2 251118Z 05008KT 10/07 A3015 RMK A01 T01030073  RH  082%=      5-min Rain = 0
KCO2 251119Z 05008KT 10/07 A3015 RMK A01 T01030073  RH  082%=      5-min Rain = 0
KCO2 251120Z 05008KT 10/07 A3015 RMK A01 T01030073  RH  082%=      5-min Rain = 0
KCO2 251121Z 04008KT 10/07 A3015 RMK A01 T01020073  RH  082%=      5-min Rain = 0
KCO2 251122Z 04008KT 10/07 A3015 RMK A01 T01020073  RH  082%=      5-min Rain = 0
KCO2 251123Z 04008KT 10/07 A3015 RMK A01 T01020073  RH  082%=      5-min Rain = 0
KCO2 251124Z 04009KT 10/07 A3015 RMK A01 T01020073  RH  082%=      5-min Rain = 0
KCO2 251125Z 04009KT 10/07 A3015 RMK A01 T01020073  RH  083%=      5-min Rain = 0
KCO2 251126Z 04008KT 10/07 A3015 RMK A01 T01010073  RH  082%=      5-min Rain = 0
KCO2 251127Z 04008KT 10/07 A3015 RMK A01 T01020073  RH  082%=      5-min Rain = 0
KCO2 251128Z 04009KT 10/07 A3015 RMK A01 T01010073  RH  083%=      5-min Rain = 0
KCO2 251129Z 04009KT 10/07 A3016 RMK A01 T01020073  RH  083%=      5-min Rain = 0
KCO2 251130Z 04009KT 10/07 A3016 RMK A01 T01020073  RH  082%=      5-min Rain = 0
KCO2 251131Z 04009KT 10/07 A3016 RMK A01 T01020073  RH  082%=      5-min Rain = 0
KCO2 251132Z 04010KT 10/07 A3016 RMK A01 T01020073  RH  082%=      5-min Rain = 0
KCO2 251133Z 03010KT 10/07 A3016 RMK A01 T01020073  RH  082%=      5-min Rain = 0
KCO2 251134Z 04009KT 10/07 A3016 RMK A01 T01020073  RH  082%=      5-min Rain = 0
KCO2 251135Z 04009KT 10/07 A3016 RMK A01 T01030074  RH  082%=      5-min Rain = 0
KCO2 251136Z 04010KT 10/07 A3016 RMK A01 T01020073  RH  082%=      5-min Rain = 0
KCO2 251137Z 04010KT 10/07 A3016 RMK A01 T01020073  RH  082%=      5-min Rain = 0
KCO2 251138Z 04009KT 10/07 A3016 RMK A01 T01020073  RH  082%=      5-min Rain = 0
KCO2 251139Z 04009KT 10/07 A3016 RMK A01 T01020073  RH  082%=      5-min Rain = 0
KCO2 251140Z 04010KT 10/07 A3016 RMK A01 T01020073  RH  082%=      5-min Rain = 0
KCO2 251141Z 04010KT 10/07 A3016 RMK A01 T01020073  RH  082%=      5-min Rain = 0
KCO2 251142Z 03009KT 10/07 A3016 RMK A01 T01020073  RH  082%=      5-min Rain = 0
KCO2 251143Z 03009KT 10/07 A3016 RMK A01 T01030073  RH  082%=      5-min Rain = 0
KCO2 251144Z 03010KT 10/07 A3016 RMK A01 T01020073  RH  082%=      5-min Rain = 0
KCO2 251145Z 04009KT 10/07 A3016 RMK A01 T01020073  RH  082%=      5-min Rain = 0
KCO2 251146Z 03008KT 10/07 A3016 RMK A01 T01020073  RH  082%=      5-min Rain = 0
KCO2 251147Z 04009KT 10/07 A3016 RMK A01 T01020073  RH  082%=      5-min Rain = 0
KCO2 251148Z 04010KT 10/07 A3016 RMK A01 T01020073  RH  082%=      5-min Rain = 0
KCO2 251149Z 04008KT 10/07 A3016 RMK A01 T01020073  RH  082%=      5-min Rain = 0
KCO2 251150Z 03008KT 10/07 A3016 RMK A01 T01020072  RH  082%=      5-min Rain = 0
KCO2 251151Z 03009KT 10/07 A3016 RMK A01 T01020072  RH  082%=      5-min Rain = 0
KCO2 251152Z 04008KT 10/07 A3016 RMK A01 T01020073  RH  082%=      5-min Rain = 0
KCO2 251153Z 03009KT 10/07 A3016 RMK A01 T01020072  RH  082%=      5-min Rain = 0
KCO2 251154Z 03008KT 10/07 A3016 RMK A01 T01020073  RH  082%=      5-min Rain = 0
KCO2 251155Z 03009KT 10/07 A3017 RMK A01 T01010072  RH  082%=      5-min Rain = 0
KCO2 251156Z 03008KT 10/07 A3017 RMK A01 T01010072  RH  083%=      5-min Rain = 0
KCO2 251157Z 04006KT 10/07 A3017 RMK A01 T01000072  RH  083%=      5-min Rain = 0
KCO2 251158Z 03007KT 10/07 A3017 RMK A01 T01000072  RH  083%=      5-min Rain = 0
KCO2 251159Z 03007KT 10/07 A3017 RMK A01 T00990072  RH  083%=      5-min Rain = 0
KCO2 251200Z 03007KT 10/07 A3017 RMK A01 T00990072  RH  083%=      5-min Rain = 0
KCO2 251201Z 03007KT 10/07 A3017 RMK A01 T00990072  RH  083%=      5-min Rain = 0
KCO2 251202Z 04006KT 10/07 A3017 RMK A01 T00980072  RH  084%=      5-min Rain = 0
KCO2 251203Z 03006KT 10/07 A3017 RMK A01 T00980072  RH  084%=      5-min Rain = 0
KCO2 251204Z 03006KT 10/07 A3017 RMK A01 T00970071  RH  084%=      5-min Rain = 0
KCO2 251205Z 03007KT 10/07 A3017 RMK A01 T00970071  RH  084%=      5-min Rain = 0
KCO2 251206Z 04006KT 10/07 A3017 RMK A01 T00970071  RH  084%=      5-min Rain = 0
KCO2 251207Z 04006KT 10/07 A3017 RMK A01 T00960071  RH  084%=      5-min Rain = 0
KCO2 251208Z 04006KT 10/07 A3017 RMK A01 T00970071  RH  084%=      5-min Rain = 0
KCO2 251209Z 04005KT 10/07 A3017 RMK A01 T00960071  RH  084%=      5-min Rain = 0
KCO2 251210Z 04006KT 10/07 A3017 RMK A01 T00960071  RH  084%=      5-min Rain = 0
KCO2 251211Z 04006KT 10/07 A3018 RMK A01 T00950071  RH  084%=      5-min Rain = 0
KCO2 251212Z 04006KT 10/07 A3018 RMK A01 T00950070  RH  085%=      5-min Rain = 0
KCO2 251213Z 04006KT 10/07 A3018 RMK A01 T00950070  RH  085%=      5-min Rain = 0
KCO2 251214Z 04006KT 10/07 A3018 RMK A01 T00950070  RH  085%=      5-min Rain = 0
KCO2 251215Z 04006KT 10/07 A3018 RMK A01 T00950070  RH  084%=      5-min Rain = 0
KCO2 251216Z 04005KT 10/07 A3018 RMK A01 T00950070  RH  085%=      5-min Rain = 0
KCO2 251217Z 04005KT 09/07 A3018 RMK A01 T00940069  RH  085%=      5-min Rain = 0
KCO2 251218Z 04006KT 09/07 A3018 RMK A01 T00940070  RH  085%=      5-min Rain = 0
KCO2 251219Z 04006KT 09/07 A3018 RMK A01 T00940069  RH  085%=      5-min Rain = 0
KCO2 251220Z 04005KT 09/07 A3018 RMK A01 T00940069  RH  085%=      5-min Rain = 0
KCO2 251221Z 04005KT 09/07 A3018 RMK A01 T00940069  RH  085%=      5-min Rain = 0
KCO2 251222Z 03006KT 09/07 A3018 RMK A01 T00930069  RH  085%=      5-min Rain = 0
KCO2 251223Z 04006KT 09/07 A3018 RMK A01 T00930069  RH  085%=      5-min Rain = 0
KCO2 251224Z 03005KT 09/07 A3018 RMK A01 T00930069  RH  085%=      5-min Rain = 0
KCO2 251225Z 03005KT 09/07 A3018 RMK A01 T00930069  RH  085%=      5-min Rain = 0
KCO2 251226Z 03004KT 09/07 A3019 RMK A01 T00930068  RH  085%=      5-min Rain = 0
KCO2 251227Z 03004KT 09/07 A3019 RMK A01 T00920068  RH  085%=      5-min Rain = 0
KCO2 251228Z 03004KT 09/07 A3019 RMK A01 T00910067  RH  085%=      5-min Rain = 0
KCO2 251229Z 03004KT 09/07 A3019 RMK A01 T00900066  RH  085%=      5-min Rain = 0
KCO2 251230Z 03004KT 09/07 A3019 RMK A01 T00890066  RH  085%=      5-min Rain = 0
KCO2 251231Z 02004KT 09/07 A3019 RMK A01 T00880065  RH  086%=      5-min Rain = 0
KCO2 251232Z 03004KT 09/07 A3019 RMK A01 T00870065  RH  086%=      5-min Rain = 0
KCO2 251233Z 03004KT 09/06 A3019 RMK A01 T00860064  RH  086%=      5-min Rain = 0
KCO2 251234Z 03004KT 09/06 A3019 RMK A01 T00850064  RH  087%=      5-min Rain = 0
KCO2 251235Z 03004KT 08/06 A3019 RMK A01 T00840064  RH  087%=      5-min Rain = 0
KCO2 251236Z 03004KT 08/06 A3019 RMK A01 T00830064  RH  087%=      5-min Rain = 0
KCO2 251237Z 03005KT 08/06 A3019 RMK A01 T00820063  RH  087%=      5-min Rain = 0
KCO2 251238Z 03004KT 08/06 A3019 RMK A01 T00820063  RH  088%=      5-min Rain = 0
KCO2 251239Z 03005KT 08/06 A3019 RMK A01 T00810062  RH  088%=      5-min Rain = 0
KCO2 251240Z 03005KT 08/06 A3019 RMK A01 T00800062  RH  088%=      5-min Rain = 0
KCO2 251241Z 04005KT 08/06 A3019 RMK A01 T00800061  RH  088%=      5-min Rain = 0
KCO2 251242Z 04005KT 08/06 A3019 RMK A01 T00790061  RH  089%=      5-min Rain = 0
KCO2 251243Z 04005KT 08/06 A3019 RMK A01 T00790062  RH  089%=      5-min Rain = 0
KCO2 251244Z 05005KT 08/06 A3019 RMK A01 T00790062  RH  089%=      5-min Rain = 0
KCO2 251245Z 04006KT 08/06 A3019 RMK A01 T00790062  RH  089%=      5-min Rain = 0
KCO2 251246Z 04006KT 08/06 A3019 RMK A01 T00800063  RH  089%=      5-min Rain = 0
KCO2 251247Z 05006KT 08/06 A3019 RMK A01 T00810064  RH  089%=      5-min Rain = 0
KCO2 251248Z 05005KT 08/06 A302 RMK A01 T00810063  RH  089%=      5-min Rain = 0
KCO2 251249Z 05006KT 08/06 A302 RMK A01 T00820064  RH  089%=      5-min Rain = 0
KCO2 251250Z 05005KT 08/07 A302 RMK A01 T00830065  RH  088%=      5-min Rain = 0
KCO2 251251Z 05006KT 08/07 A302 RMK A01 T00840065  RH  088%=      5-min Rain = 0
KCO2 251252Z 05005KT 09/07 A302 RMK A01 T00850065  RH  087%=      5-min Rain = 0
KCO2 251253Z 05006KT 09/07 A302 RMK A01 T00860066  RH  087%=      5-min Rain = 0
KCO2 251254Z 05006KT 09/07 A302 RMK A01 T00870066  RH  087%=      5-min Rain = 0
KCO2 251255Z 05006KT 09/07 A302 RMK A01 T00880066  RH  086%=      5-min Rain = 0
KCO2 251256Z 05006KT 09/07 A302 RMK A01 T00890066  RH  086%=      5-min Rain = 0
KCO2 251257Z 05007KT 09/07 A302 RMK A01 T00900066  RH  085%=      5-min Rain = 0
KCO2 251258Z 05006KT 09/07 A302 RMK A01 T00910067  RH  085%=      5-min Rain = 0
KCO2 251259Z 06006KT 09/07 A302 RMK A01 T00910066  RH  084%=      5-min Rain = 0
KCO2 251300Z 06006KT 09/07 A302 RMK A01 T00920067  RH  084%=      5-min Rain = 0
KCO2 251301Z 06007KT 09/07 A302 RMK A01 T00930067  RH  084%=      5-min Rain = 0
KCO2 251302Z 06007KT 09/07 A302 RMK A01 T00930066  RH  083%=      5-min Rain = 0
KCO2 251303Z 06006KT 09/07 A302 RMK A01 T00940067  RH  083%=      5-min Rain = 0
KCO2 251304Z 05005KT 10/07 A302 RMK A01 T00950067  RH  083%=      5-min Rain = 0
KCO2 251305Z 06006KT 10/07 A302 RMK A01 T00950067  RH  083%=      5-min Rain = 0
KCO2 251306Z 06006KT 10/07 A302 RMK A01 T00960067  RH  082%=      5-min Rain = 0
KCO2 251307Z 06006KT 10/07 A302 RMK A01 T00960067  RH  082%=      5-min Rain = 0
KCO2 251308Z 05006KT 10/07 A302 RMK A01 T00960067  RH  082%=      5-min Rain = 0
KCO2 251309Z 05005KT 10/07 A302 RMK A01 T00970067  RH  082%=      5-min Rain = 0
KCO2 251310Z 05006KT 10/07 A302 RMK A01 T00980067  RH  081%=      5-min Rain = 0
KCO2 251311Z 05006KT 10/07 A3021 RMK A01 T00980067  RH  081%=      5-min Rain = 0
KCO2 251312Z 05005KT 10/07 A3021 RMK A01 T00980067  RH  081%=      5-min Rain = 0
KCO2 251313Z 04005KT 10/07 A3021 RMK A01 T00990067  RH  081%=      5-min Rain = 0
KCO2 251314Z 05006KT 10/07 A3021 RMK A01 T00990067  RH  081%=      5-min Rain = 0
KCO2 251315Z 05006KT 10/07 A3021 RMK A01 T01000067  RH  080%=      5-min Rain = 0
KCO2 251316Z 05006KT 10/07 A3021 RMK A01 T01000067  RH  080%=      5-min Rain = 0
KCO2 251317Z 05006KT 10/07 A3021 RMK A01 T01010067  RH  080%=      5-min Rain = 0
KCO2 251318Z 05006KT 10/07 A3021 RMK A01 T01020067  RH  079%=      5-min Rain = 0
KCO2 251319Z 05006KT 10/07 A3021 RMK A01 T01020068  RH  079%=      5-min Rain = 0
KCO2 251320Z 05005KT 10/07 A3021 RMK A01 T01030067  RH  079%=      5-min Rain = 0
KCO2 251321Z 05006KT 10/07 A3021 RMK A01 T01030068  RH  078%=      5-min Rain = 0
KCO2 251322Z 05006KT 10/07 A3021 RMK A01 T01040068  RH  078%=      5-min Rain = 0
KCO2 251323Z 05006KT 11/07 A3021 RMK A01 T01050068  RH  078%=      5-min Rain = 0
KCO2 251324Z 05006KT 11/07 A3021 RMK A01 T01050068  RH  078%=      5-min Rain = 0
KCO2 251325Z 06006KT 11/07 A3021 RMK A01 T01060068  RH  077%=      5-min Rain = 0
KCO2 251326Z 05005KT 11/07 A3021 RMK A01 T01060068  RH  077%=      5-min Rain = 0
KCO2 251327Z 05006KT 11/07 A3021 RMK A01 T01070069  RH  077%=      5-min Rain = 0
KCO2 251328Z 05006KT 11/07 A3021 RMK A01 T01080068  RH  077%=      5-min Rain = 0
KCO2 251329Z 05007KT 11/07 A3022 RMK A01 T01080068  RH  076%=      5-min Rain = 0
KCO2 251330Z 05006KT 11/07 A3022 RMK A01 T01090068  RH  076%=      5-min Rain = 0
KCO2 251331Z 05006KT 11/07 A3022 RMK A01 T01090069  RH  076%=      5-min Rain = 0
KCO2 251332Z 05007KT 11/07 A3022 RMK A01 T01100069  RH  076%=      5-min Rain = 0
KCO2 251333Z 04007KT 11/07 A3022 RMK A01 T01110069  RH  075%=      5-min Rain = 0
KCO2 251334Z 05006KT 11/07 A3022 RMK A01 T01120069  RH  075%=      5-min Rain = 0
KCO2 251335Z 04007KT 11/07 A3022 RMK A01 T01120069  RH  075%=      5-min Rain = 0
KCO2 251336Z 04006KT 11/07 A3022 RMK A01 T01120068  RH  074%=      5-min Rain = 0
KCO2 251337Z 05007KT 11/07 A3022 RMK A01 T01120069  RH  075%=      5-min Rain = 0
KCO2 251338Z 05006KT 11/07 A3022 RMK A01 T01140070  RH  075%=      5-min Rain = 0
KCO2 251339Z 04007KT 12/07 A3022 RMK A01 T01150071  RH  074%=      5-min Rain = 0
KCO2 251340Z 05007KT 12/07 A3022 RMK A01 T01160069  RH  073%=      5-min Rain = 0
KCO2 251341Z 05007KT 12/07 A3022 RMK A01 T01160069  RH  073%=      5-min Rain = 0
KCO2 251342Z 06008KT 12/07 A3022 RMK A01 T01160070  RH  073%=      5-min Rain = 0
KCO2 251343Z 06006KT 12/07 A3022 RMK A01 T01170070  RH  073%=      5-min Rain = 0
KCO2 251344Z 05006KT 12/07 A3022 RMK A01 T01180071  RH  073%=      5-min Rain = 0
KCO2 251345Z 05006KT 12/07 A3022 RMK A01 T01190071  RH  072%=      5-min Rain = 0
KCO2 251346Z 06008KT 12/07 A3022 RMK A01 T01200070  RH  072%=      5-min Rain = 0
KCO2 251347Z 06008KT 12/07 A3022 RMK A01 T01210071  RH  072%=      5-min Rain = 0
KCO2 251348Z 06009KT 12/07 A3022 RMK A01 T01210070  RH  071%=      5-min Rain = 0
KCO2 251349Z 06008KT 12/07 A3022 RMK A01 T01210069  RH  071%=      5-min Rain = 0
KCO2 251350Z 06008KT 12/07 A3022 RMK A01 T01220070  RH  071%=      5-min Rain = 0
KCO2 251351Z 06008KT 12/07 A3022 RMK A01 T01220070  RH  071%=      5-min Rain = 0
KCO2 251352Z 06009KT 12/07 A3022 RMK A01 T01230070  RH  070%=      5-min Rain = 0
KCO2 251353Z 06009KT 12/07 A3022 RMK A01 T01230070  RH  070%=      5-min Rain = 0
KCO2 251354Z 06009KT 12/07 A3022 RMK A01 T01240070  RH  070%=      5-min Rain = 0
KCO2 251355Z 06012KT 13/07 A3022 RMK A01 T01250070  RH  069%=      5-min Rain = 0
KCO2 251356Z 06013KT 13/07 A3022 RMK A01 T01260069  RH  068%=      5-min Rain = 0
KCO2 251357Z 07011KT 13/07 A3022 RMK A01 T01260070  RH  069%=      5-min Rain = 0
KCO2 251358Z 07010KT 13/07 A3022 RMK A01 T01260070  RH  069%=      5-min Rain = 0
KCO2 251359Z 06008KT 13/07 A3022 RMK A01 T01270071  RH  069%=      5-min Rain = 0
KCO2 251400Z 06012KT 13/07 A3023 RMK A01 T01280072  RH  069%=      5-min Rain = 0
KCO2 251401Z 06013KT 13/07 A3023 RMK A01 T01280071  RH  068%=      5-min Rain = 0
KCO2 251402Z 06012KT 13/07 A3023 RMK A01 T01280070  RH  068%=      5-min Rain = 0
KCO2 251403Z 07010KT 13/07 A3023 RMK A01 T01280071  RH  068%=      5-min Rain = 0
KCO2 251404Z 06010KT 13/07 A3023 RMK A01 T01280071  RH  068%=      5-min Rain = 0
KCO2 251405Z 06010KT 13/07 A3023 RMK A01 T01290071  RH  068%=      5-min Rain = 0
KCO2 251406Z 06010KT 13/07 A3023 RMK A01 T01290072  RH  068%=      5-min Rain = 0
KCO2 251407Z 06010KT 13/07 A3023 RMK A01 T01290071  RH  068%=      5-min Rain = 0
KCO2 251408Z 07007KT 13/07 A3023 RMK A01 T01300073  RH  068%=      5-min Rain = 0
KCO2 251409Z 07010KT 13/07 A3023 RMK A01 T01310073  RH  068%=      5-min Rain = 0
KCO2 251410Z 08010KT 13/07 A3023 RMK A01 T01320073  RH  067%=      5-min Rain = 0
KCO2 251411Z 07011KT 13/07 A3023 RMK A01 T01320073  RH  067%=      5-min Rain = 0
KCO2 251412Z 07010KT 13/07 A3023 RMK A01 T01320073  RH  067%=      5-min Rain = 0
KCO2 251413Z 07012KT 13/07 A3023 RMK A01 T01320073  RH  067%=      5-min Rain = 0
KCO2 251414Z 07011KT 13/07 A3023 RMK A01 T01320072  RH  067%=      5-min Rain = 0
KCO2 251415Z 07010KT 13/07 A3023 RMK A01 T01320073  RH  067%=      5-min Rain = 0
KCO2 251416Z 08010KT 13/07 A3023 RMK A01 T01330073  RH  067%=      5-min Rain = 0
KCO2 251417Z 07008KT 13/07 A3023 RMK A01 T01340074  RH  067%=      5-min Rain = 0
KCO2 251418Z 07011KT 14/07 A3023 RMK A01 T01350074  RH  066%=      5-min Rain = 0
KCO2 251419Z 07009KT 14/07 A3023 RMK A01 T01360073  RH  066%=      5-min Rain = 0
KCO2 251420Z 08011KT 14/07 A3023 RMK A01 T01360074  RH  066%=      5-min Rain = 0
KCO2 251421Z 08010KT 14/07 A3024 RMK A01 T01370073  RH  065%=      5-min Rain = 0
KCO2 251422Z 08011KT 14/07 A3024 RMK A01 T01370073  RH  065%=      5-min Rain = 0
KCO2 251423Z 08011KT 14/07 A3024 RMK A01 T01380072  RH  064%=      5-min Rain = 0
KCO2 251424Z 08010KT 14/07 A3024 RMK A01 T01390072  RH  064%=      5-min Rain = 0
KCO2 251425Z 07011KT 14/07 A3024 RMK A01 T01400071  RH  063%=      5-min Rain = 0
KCO2 251426Z 07014KT 14/07 A3024 RMK A01 T01390070  RH  063%=      5-min Rain = 0
KCO2 251427Z 07013KT 14/07 A3024 RMK A01 T01390069  RH  063%=      5-min Rain = 0
KCO2 251428Z 07011KT 14/07 A3024 RMK A01 T01380071  RH  064%=      5-min Rain = 0
KCO2 251429Z 07012KT 14/07 A3024 RMK A01 T01380070  RH  063%=      5-min Rain = 0
KCO2 251430Z 07013KT 14/07 A3024 RMK A01 T01390070  RH  063%=      5-min Rain = 0
KCO2 251431Z 08012KT 14/07 A3024 RMK A01 T01390070  RH  063%=      5-min Rain = 0
KCO2 251432Z 07011KT 14/07 A3024 RMK A01 T01390068  RH  062%=      5-min Rain = 0
KCO2 251433Z 07013KT 14/07 A3024 RMK A01 T01400069  RH  062%=      5-min Rain = 0
KCO2 251434Z 07011KT 14/07 A3024 RMK A01 T01410068  RH  061%=      5-min Rain = 0
KCO2 251435Z 07011KT 14/07 A3024 RMK A01 T01410069  RH  062%=      5-min Rain = 0
KCO2 251436Z 08011KT 14/07 A3024 RMK A01 T01410069  RH  062%=      5-min Rain = 0
KCO2 251437Z 06012KT 14/07 A3024 RMK A01 T01430070  RH  062%=      5-min Rain = 0
KCO2 251438Z 07014KT 14/07 A3024 RMK A01 T01440069  RH  061%=      5-min Rain = 0
KCO2 251439Z 07013KT 14/07 A3024 RMK A01 T01440070  RH  061%=      5-min Rain = 0
KCO2 251440Z 07011KT 14/07 A3024 RMK A01 T01440070  RH  061%=      5-min Rain = 0
KCO2 251441Z 07012KT 15/07 A3025 RMK A01 T01460071  RH  061%=      5-min Rain = 0
KCO2 251442Z 08011KT 15/07 A3025 RMK A01 T01460070  RH  060%=      5-min Rain = 0
KCO2 251443Z 08012KT 15/07 A3025 RMK A01 T01470071  RH  060%=      5-min Rain = 0
KCO2 251444Z 07011KT 15/07 A3024 RMK A01 T01470070  RH  060%=      5-min Rain = 0
KCO2 251445Z 08012KT 15/07 A3025 RMK A01 T01470071  RH  060%=      5-min Rain = 0
KCO2 251446Z 08010KT 15/07 A3025 RMK A01 T01480071  RH  060%=      5-min Rain = 0
KCO2 251447Z 07013KT 15/07 A3025 RMK A01 T01490070  RH  059%=      5-min Rain = 0
KCO2 251448Z 07014KT 15/07 A3025 RMK A01 T01480070  RH  060%=      5-min Rain = 0
KCO2 251449Z 07014KT 15/07 A3025 RMK A01 T01470070  RH  060%=      5-min Rain = 0
KCO2 251450Z 08014KT 15/07 A3025 RMK A01 T01470068  RH  059%=      5-min Rain = 0
KCO2 251451Z 08010KT 15/07 A3025 RMK A01 T01470070  RH  060%=      5-min Rain = 0
KCO2 251452Z 07011KT 15/07 A3025 RMK A01 T01480070  RH  060%=      5-min Rain = 0
KCO2 251453Z 06012KT 15/07 A3025 RMK A01 T01490071  RH  060%=      5-min Rain = 0
KCO2 251454Z 07010KT 15/07 A3025 RMK A01 T01490072  RH  060%=      5-min Rain = 0
KCO2 251455Z 08011KT 15/07 A3025 RMK A01 T01520073  RH  059%=      5-min Rain = 0
KCO2 251456Z 08014KT 15/07 A3025 RMK A01 T01530071  RH  058%=      5-min Rain = 0
KCO2 251457Z 08014KT 15/07 A3025 RMK A01 T01520070  RH  058%=      5-min Rain = 0
KCO2 251458Z 08013KT 15/07 A3025 RMK A01 T01500069  RH  058%=      5-min Rain = 0
KCO2 251459Z 08011KT 15/07 A3025 RMK A01 T01500069  RH  058%=      5-min Rain = 0
KCO2 251500Z 07012KT 15/07 A3026 RMK A01 T01510069  RH  058%=      5-min Rain = 0
KCO2 251501Z 08012KT 15/07 A3026 RMK A01 T01510070  RH  058%=      5-min Rain = 0
KCO2 251502Z 08011KT 15/07 A3025 RMK A01 T01520070  RH  058%=      5-min Rain = 0
KCO2 251503Z 07011KT 15/07 A3026 RMK A01 T01530071  RH  058%=      5-min Rain = 0
KCO2 251504Z 07010KT 15/07 A3026 RMK A01 T01520072  RH  058%=      5-min Rain = 0
KCO2 251505Z 08010KT 15/07 A3026 RMK A01 T01530073  RH  059%=      5-min Rain = 0
KCO2 251506Z 09009KT 15/07 A3025 RMK A01 T01530072  RH  058%=      5-min Rain = 0
KCO2 251507Z 09010KT 16/07 A3025 RMK A01 T01560071  RH  057%=      5-min Rain = 0
KCO2 251508Z 07010KT 16/07 A3025 RMK A01 T01590072  RH  056%=      5-min Rain = 0
KCO2 251509Z 09008KT 16/07 A3025 RMK A01 T01600073  RH  057%=      5-min Rain = 0
KCO2 251510Z 09009KT 16/07 A3025 RMK A01 T01610072  RH  056%=      5-min Rain = 0
KCO2 251511Z 09009KT 16/07 A3025 RMK A01 T01630071  RH  054%=      5-min Rain = 0
KCO2 251512Z 08011KT 16/07 A3026 RMK A01 T01630071  RH  054%=      5-min Rain = 0
KCO2 251513Z 09011KT 16/07 A3026 RMK A01 T01630068  RH  053%=      5-min Rain = 0
KCO2 251514Z 09010KT 16/07 A3026 RMK A01 T01630067  RH  053%=      5-min Rain = 0
KCO2 251515Z 08012KT 16/07 A3026 RMK A01 T01630069  RH  054%=      5-min Rain = 0
KCO2 251516Z 09012KT 16/07 A3026 RMK A01 T01620069  RH  054%=      5-min Rain = 0
KCO2 251517Z 10011KT 16/07 A3026 RMK A01 T01620068  RH  054%=      5-min Rain = 0
KCO2 251518Z 09012KT 16/07 A3026 RMK A01 T01630069  RH  054%=      5-min Rain = 0
KCO2 251519Z 09012KT 17/07 A3026 RMK A01 T01650069  RH  053%=      5-min Rain = 0
KCO2 251520Z 09013KT 16/07 A3026 RMK A01 T01640067  RH  053%=      5-min Rain = 0
KCO2 251521Z 09012KT 16/07 A3026 RMK A01 T01630067  RH  053%=      5-min Rain = 0
KCO2 251522Z 08012KT 16/07 A3026 RMK A01 T01630067  RH  053%=      5-min Rain = 0
KCO2 251523Z 08010KT 16/07 A3026 RMK A01 T01640069  RH  053%=      5-min Rain = 0
KCO2 251524Z 09013KT 16/07 A3026 RMK A01 T01640069  RH  053%=      5-min Rain = 0
KCO2 251525Z 10011KT 16/07 A3026 RMK A01 T01640069  RH  053%=      5-min Rain = 0
KCO2 251526Z 09009KT 17/07 A3026 RMK A01 T01650069  RH  053%=      5-min Rain = 0
KCO2 251527Z 08010KT 17/07 A3026 RMK A01 T01670070  RH  053%=      5-min Rain = 0
KCO2 251528Z 08011KT 17/07 A3026 RMK A01 T01670070  RH  053%=      5-min Rain = 0
KCO2 251529Z 07011KT 17/07 A3026 RMK A01 T01670070  RH  053%=      5-min Rain = 0
KCO2 251530Z 07012KT 17/07 A3026 RMK A01 T01650069  RH  053%=      5-min Rain = 0
KCO2 251531Z 07012KT 16/07 A3026 RMK A01 T01640069  RH  054%=      5-min Rain = 0
KCO2 251532Z 07011KT 16/07 A3026 RMK A01 T01630069  RH  054%=      5-min Rain = 0
KCO2 251533Z 08010KT 16/07 A3026 RMK A01 T01620070  RH  054%=      5-min Rain = 0
KCO2 251534Z 09010KT 16/07 A3026 RMK A01 T01630071  RH  054%=      5-min Rain = 0
KCO2 251535Z 08011KT 17/07 A3026 RMK A01 T01650071  RH  054%=      5-min Rain = 0
KCO2 251536Z 08010KT 17/07 A3026 RMK A01 T01660071  RH  053%=      5-min Rain = 0
KCO2 251537Z 09009KT 17/07 A3026 RMK A01 T01660071  RH  054%=      5-min Rain = 0
KCO2 251538Z 07012KT 17/07 A3027 RMK A01 T01660072  RH  054%=      5-min Rain = 0
KCO2 251539Z 08011KT 17/07 A3027 RMK A01 T01650071  RH  054%=      5-min Rain = 0
KCO2 251540Z 07008KT 16/07 A3027 RMK A01 T01630071  RH  054%=      5-min Rain = 0
KCO2 251541Z 07010KT 16/07 A3027 RMK A01 T01630072  RH  055%=      5-min Rain = 0
KCO2 251542Z 07011KT 17/07 A3027 RMK A01 T01650072  RH  054%=      5-min Rain = 0
KCO2 251543Z 07011KT 17/07 A3027 RMK A01 T01660071  RH  053%=      5-min Rain = 0
KCO2 251544Z 08009KT 17/07 A3027 RMK A01 T01650072  RH  054%=      5-min Rain = 0
KCO2 251545Z 07010KT 17/07 A3027 RMK A01 T01670073  RH  054%=      5-min Rain = 0
KCO2 251546Z 07013KT 17/07 A3027 RMK A01 T01680072  RH  053%=      5-min Rain = 0
KCO2 251547Z 07012KT 17/07 A3027 RMK A01 T01670072  RH  053%=      5-min Rain = 0
KCO2 251548Z 08010KT 17/07 A3027 RMK A01 T01650071  RH  054%=      5-min Rain = 0
KCO2 251549Z 09011KT 17/07 A3027 RMK A01 T01650073  RH  054%=      5-min Rain = 0
KCO2 251550Z 08009KT 17/07 A3027 RMK A01 T01660072  RH  054%=      5-min Rain = 0
KCO2 251551Z 08010KT 17/07 A3027 RMK A01 T01690074  RH  054%=      5-min Rain = 0
KCO2 251552Z 09010KT 17/07 A3027 RMK A01 T01720074  RH  052%=      5-min Rain = 0
KCO2 251553Z 08009KT 17/07 A3027 RMK A01 T01730073  RH  052%=      5-min Rain = 0
KCO2 251554Z 08011KT 17/07 A3027 RMK A01 T01740072  RH  051%=      5-min Rain = 0
KCO2 251555Z 07010KT 17/07 A3027 RMK A01 T01730071  RH  051%=      5-min Rain = 0
KCO2 251556Z 08010KT 17/07 A3027 RMK A01 T01720071  RH  051%=      5-min Rain = 0
KCO2 251557Z 06010KT 17/07 A3027 RMK A01 T01720073  RH  052%=      5-min Rain = 0
KCO2 251558Z 06011KT 17/08 A3027 RMK A01 T01730076  RH  053%=      5-min Rain = 0
KCO2 251559Z 06008KT 17/08 A3027 RMK A01 T01720076  RH  053%=      5-min Rain = 0
KCO2 251600Z 07009KT 17/08 A3027 RMK A01 T01740078  RH  053%=      5-min Rain = 0
KCO2 251601Z 07010KT 18/08 A3027 RMK A01 T01750076  RH  052%=      5-min Rain = 0
KCO2 251602Z 08007KT 18/08 A3027 RMK A01 T01760077  RH  052%=      5-min Rain = 0
KCO2 251603Z 05010KT 18/08 A3027 RMK A01 T01760077  RH  052%=      5-min Rain = 0
KCO2 251604Z 08010KT 18/08 A3027 RMK A01 T01770078  RH  052%=      5-min Rain = 0
KCO2 251605Z 06009KT 18/08 A3027 RMK A01 T01800078  RH  051%=      5-min Rain = 0
KCO2 251606Z 07009KT 18/08 A3027 RMK A01 T01810078  RH  051%=      5-min Rain = 0
KCO2 251607Z 08009KT 18/08 A3027 RMK A01 T01800076  RH  051%=      5-min Rain = 0
KCO2 251608Z 09007KT 18/08 A3027 RMK A01 T01780076  RH  051%=      5-min Rain = 0
KCO2 251609Z 06008KT 18/08 A3028 RMK A01 T01780077  RH  052%=      5-min Rain = 0
KCO2 251610Z 05010KT 18/08 A3028 RMK A01 T01780077  RH  052%=      5-min Rain = 0
KCO2 251611Z 07013KT 18/08 A3028 RMK A01 T01780079  RH  052%=      5-min Rain = 0
KCO2 251612Z 06013KT 18/08 A3028 RMK A01 T01770076  RH  052%=      5-min Rain = 0
KCO2 251613Z 06009KT 17/08 A3028 RMK A01 T01740076  RH  053%=      5-min Rain = 0
KCO2 251614Z 06010KT 17/08 A3028 RMK A01 T01740078  RH  053%=      5-min Rain = 0
KCO2 251615Z 07010KT 18/08 A3028 RMK A01 T01770076  RH  051%=      5-min Rain = 0
KCO2 251616Z 07011KT 18/08 A3028 RMK A01 T01770075  RH  051%=      5-min Rain = 0
KCO2 251617Z 07011KT 18/08 A3028 RMK A01 T01750075  RH  052%=      5-min Rain = 0
KCO2 251618Z 07009KT 17/08 A3028 RMK A01 T01740077  RH  053%=      5-min Rain = 0
KCO2 251619Z 04009KT 17/08 A3028 RMK A01 T01740077  RH  053%=      5-min Rain = 0
KCO2 251620Z 05012KT 18/08 A3028 RMK A01 T01760078  RH  053%=      5-min Rain = 0
KCO2 251621Z 06011KT 18/08 A3028 RMK A01 T01780077  RH  052%=      5-min Rain = 0
KCO2 251622Z 06010KT 18/08 A3028 RMK A01 T01770077  RH  052%=      5-min Rain = 0
KCO2 251623Z 06008KT 18/08 A3028 RMK A01 T01750076  RH  052%=      5-min Rain = 0
KCO2 251624Z 06011KT 18/08 A3028 RMK A01 T01750079  RH  053%=      5-min Rain = 0
KCO2 251625Z 08014KT 18/08 A3028 RMK A01 T01800079  RH  052%=      5-min Rain = 0
KCO2 251626Z 07011KT 18/08 A3028 RMK A01 T01790075  RH  051%=      5-min Rain = 0
KCO2 251627Z 08007KT 18/08 A3028 RMK A01 T01770077  RH  052%=      5-min Rain = 0
KCO2 251628Z 06011KT 18/08 A3028 RMK A01 T01780078  RH  052%=      5-min Rain = 0
KCO2 251629Z 06013KT 18/08 A3028 RMK A01 T01810077  RH  051%=      5-min Rain = 0
KCO2 251630Z 06013KT 18/08 A3028 RMK A01 T01790075  RH  050%=      5-min Rain = 0
KCO2 251631Z 05009KT 18/08 A3028 RMK A01 T01760075  RH  051%=      5-min Rain = 0
KCO2 251632Z 06012G17KT 18/07 A3028 RMK A01 T01790074  RH  050%=      5-min Rain = 0
KCO2 251633Z 06014KT 18/07 A3028 RMK A01 T01790073  RH  050%=      5-min Rain = 0
KCO2 251634Z 06012KT 18/08 A3028 RMK A01 T01790075  RH  051%=      5-min Rain = 0
KCO2 251635Z 08012KT 18/07 A3028 RMK A01 T01780074  RH  050%=      5-min Rain = 0
KCO2 251636Z 07010KT 18/08 A3028 RMK A01 T01790075  RH  051%=      5-min Rain = 0
KCO2 251637Z 08012KT 18/08 A3028 RMK A01 T01810076  RH  050%=      5-min Rain = 0
KCO2 251638Z 07011KT 18/08 A3028 RMK A01 T01840076  RH  049%=      5-min Rain = 0
KCO2 251639Z 07014KT 18/08 A3028 RMK A01 T01810075  RH  050%=      5-min Rain = 0
KCO2 251640Z 07013KT 18/08 A3028 RMK A01 T01780076  RH  051%=      5-min Rain = 0
KCO2 251641Z 06013KT 18/08 A3028 RMK A01 T01780076  RH  051%=      5-min Rain = 0
KCO2 251642Z 06010G15KT 18/08 A3028 RMK A01 T01790075  RH  051%=      5-min Rain = 0
KCO2 251643Z 06014KT 18/07 A3028 RMK A01 T01800073  RH  049%=      5-min Rain = 0
KCO2 251644Z 06013KT 18/07 A3028 RMK A01 T01790070  RH  049%=      5-min Rain = 0
KCO2 251645Z 07011KT 18/07 A3028 RMK A01 T01780073  RH  050%=      5-min Rain = 0
KCO2 251646Z 06014KT 18/07 A3028 RMK A01 T01780074  RH  050%=      5-min Rain = 0
KCO2 251647Z 06012KT 18/07 A3028 RMK A01 T01780074  RH  051%=      5-min Rain = 0
KCO2 251648Z 05012KT 18/08 A3028 RMK A01 T01770075  RH  051%=      5-min Rain = 0
KCO2 251649Z 06013KT 18/08 A3028 RMK A01 T01800077  RH  051%=      5-min Rain = 0
KCO2 251650Z 07012KT 18/07 A3028 RMK A01 T01820074  RH  049%=      5-min Rain = 0
KCO2 251651Z 08012KT 18/07 A3028 RMK A01 T01810074  RH  049%=      5-min Rain = 0
KCO2 251652Z 07014KT 18/08 A3028 RMK A01 T01800075  RH  050%=      5-min Rain = 0
KCO2 251653Z 07012KT 18/08 A3028 RMK A01 T01800076  RH  051%=      5-min Rain = 0
KCO2 251654Z 07012KT 18/08 A3028 RMK A01 T01810075  RH  050%=      5-min Rain = 0
KCO2 251655Z 06015KT 18/08 A3028 RMK A01 T01820076  RH  050%=      5-min Rain = 0
KCO2 251656Z 06014KT 18/08 A3028 RMK A01 T01840077  RH  050%=      5-min Rain = 0
KCO2 251657Z 07010KT 18/08 A3028 RMK A01 T01820076  RH  050%=      5-min Rain = 0
KCO2 251658Z 06009KT 18/08 A3028 RMK A01 T01810077  RH  051%=      5-min Rain = 0
KCO2 251659Z 06012KT 18/08 A3028 RMK A01 T01840079  RH  050%=      5-min Rain = 0
KCO2 251700Z 06011KT 19/08 A3028 RMK A01 T01850076  RH  049%=      5-min Rain = 0
KCO2 251701Z 05012KT 18/08 A3028 RMK A01 T01830076  RH  049%=      5-min Rain = 0
KCO2 251702Z 07011KT 19/08 A3028 RMK A01 T01870076  RH  049%=      5-min Rain = 0
KCO2 251703Z 07010KT 19/07 A3028 RMK A01 T01860074  RH  048%=      5-min Rain = 0
KCO2 251704Z 07011KT 18/08 A3028 RMK A01 T01830075  RH  049%=      5-min Rain = 0
KCO2 251705Z 07013G18KT 19/08 A3028 RMK A01 T01850077  RH  049%=      5-min Rain = 0
KCO2 251706Z 06015KT 19/08 A3029 RMK A01 T01860077  RH  049%=      5-min Rain = 0
KCO2 251707Z 07013G19KT 18/08 A3028 RMK A01 T01840077  RH  050%=      5-min Rain = 0
KCO2 251708Z 05012KT 19/08 A3029 RMK A01 T01870080  RH  049%=      5-min Rain = 0
KCO2 251709Z 05012KT 19/08 A3029 RMK A01 T01890078  RH  048%=      5-min Rain = 0
KCO2 251710Z 06012KT 19/08 A3029 RMK A01 T01860077  RH  049%=      5-min Rain = 0
KCO2 251711Z 07011KT 18/08 A3028 RMK A01 T01830077  RH  050%=      5-min Rain = 0
KCO2 251712Z 06010G15KT 19/08 A3028 RMK A01 T01850080  RH  050%=      5-min Rain = 0
KCO2 251713Z 07011KT 19/08 A3028 RMK A01 T01870078  RH  049%=      5-min Rain = 0
KCO2 251714Z 07012KT 19/08 A3029 RMK A01 T01870078  RH  049%=      5-min Rain = 0
KCO2 251715Z 08012KT 19/08 A3028 RMK A01 T01880077  RH  048%=      5-min Rain = 0
KCO2 251716Z 06013KT 19/07 A3028 RMK A01 T01870074  RH  048%=      5-min Rain = 0
KCO2 251717Z 06012KT 19/07 A3029 RMK A01 T01860071  RH  047%=      5-min Rain = 0
KCO2 251718Z 06011KT 19/07 A3029 RMK A01 T01860070  RH  047%=      5-min Rain = 0
KCO2 251719Z 06011KT 19/07 A3028 RMK A01 T01850073  RH  048%=      5-min Rain = 0
KCO2 251720Z 06009KT 18/07 A3028 RMK A01 T01820074  RH  049%=      5-min Rain = 0
KCO2 251721Z 06011KT 18/08 A3028 RMK A01 T01820077  RH  050%=      5-min Rain = 0
KCO2 251722Z 06011KT 19/08 A3028 RMK A01 T01850079  RH  050%=      5-min Rain = 0
KCO2 251723Z 06012KT 19/08 A3028 RMK A01 T01860080  RH  050%=      5-min Rain = 0
KCO2 251724Z 05013KT 19/08 A3028 RMK A01 T01880081  RH  050%=      5-min Rain = 0
KCO2 251725Z 05010KT 19/08 A3028 RMK A01 T01890080  RH  049%=      5-min Rain = 0
KCO2 251726Z 03011KT 19/08 A3028 RMK A01 T01890080  RH  049%=      5-min Rain = 0
KCO2 251727Z 05012KT 19/08 A3028 RMK A01 T01910080  RH  048%=      5-min Rain = 0
KCO2 251728Z 07013KT 19/07 A3028 RMK A01 T01910073  RH  046%=      5-min Rain = 0
KCO2 251729Z 07013KT 19/07 A3028 RMK A01 T01890072  RH  047%=      5-min Rain = 0
KCO2 251730Z 07011KT 19/08 A3028 RMK A01 T01880076  RH  048%=      5-min Rain = 0
KCO2 251731Z 07014KT 19/08 A3028 RMK A01 T01870077  RH  049%=      5-min Rain = 0
KCO2 251732Z 08012KT 19/08 A3028 RMK A01 T01870077  RH  049%=      5-min Rain = 0
KCO2 251733Z 08011KT 19/08 A3028 RMK A01 T01870077  RH  049%=      5-min Rain = 0
KCO2 251734Z 06010KT 19/08 A3028 RMK A01 T01860078  RH  049%=      5-min Rain = 0
KCO2 251735Z 07014KT 19/08 A3028 RMK A01 T01860076  RH  049%=      5-min Rain = 0
KCO2 251736Z 06012KT 19/07 A3028 RMK A01 T01870073  RH  047%=      5-min Rain = 0
KCO2 251737Z 07011KT 18/07 A3028 RMK A01 T01840074  RH  049%=      5-min Rain = 0
KCO2 251738Z 08012KT 19/08 A3028 RMK A01 T01860076  RH  049%=      5-min Rain = 0
KCO2 251739Z 06010KT 19/08 A3028 RMK A01 T01870076  RH  048%=      5-min Rain = 0
KCO2 251740Z 05014KT 19/08 A3028 RMK A01 T01890076  RH  048%=      5-min Rain = 0
KCO2 251741Z 06010KT 19/08 A3028 RMK A01 T01900076  RH  047%=      5-min Rain = 0
KCO2 251742Z 06007KT 19/08 A3028 RMK A01 T01880075  RH  048%=      5-min Rain = 0
KCO2 251743Z 04012KT 19/08 A3028 RMK A01 T01870076  RH  049%=      5-min Rain = 0
KCO2 251744Z 04012KT 19/08 A3028 RMK A01 T01880077  RH  049%=      5-min Rain = 0
KCO2 251745Z 05014KT 19/08 A3028 RMK A01 T01900080  RH  049%=      5-min Rain = 0
KCO2 251746Z 04011KT 19/08 A3028 RMK A01 T01890079  RH  049%=      5-min Rain = 0
KCO2 251747Z 03011KT 19/08 A3028 RMK A01 T01880079  RH  049%=      5-min Rain = 0
KCO2 251748Z 06014KT 19/08 A3028 RMK A01 T01900078  RH  048%=      5-min Rain = 0
KCO2 251749Z 06014KT 19/08 A3028 RMK A01 T01920075  RH  047%=      5-min Rain = 0
KCO2 251750Z 06012KT 19/07 A3028 RMK A01 T01920073  RH  046%=      5-min Rain = 0
KCO2 251751Z 06011KT 19/07 A3028 RMK A01 T01890073  RH  047%=      5-min Rain = 0
KCO2 251752Z 06012KT 19/08 A3028 RMK A01 T01880075  RH  048%=      5-min Rain = 0
KCO2 251753Z 06014KT 19/08 A3028 RMK A01 T01880076  RH  048%=      5-min Rain = 0
KCO2 251754Z 06013KT 19/08 A3028 RMK A01 T01900076  RH  047%=      5-min Rain = 0
KCO2 251755Z 06010KT 19/08 A3028 RMK A01 T01900077  RH  048%=      5-min Rain = 0
KCO2 251756Z 04008KT 19/08 A3028 RMK A01 T01910077  RH  047%=      5-min Rain = 0
KCO2 251757Z 08011KT 19/08 A3028 RMK A01 T01940080  RH  048%=      5-min Rain = 0
KCO2 251758Z 08014KT 20/08 A3028 RMK A01 T01960078  RH  046%=      5-min Rain = 0
KCO2 251759Z 08011KT 20/08 A3028 RMK A01 T01970080  RH  047%=      5-min Rain = 0
KCO2 251800Z 06010KT 20/08 A3028 RMK A01 T01970081  RH  047%=      5-min Rain = 0
KCO2 251801Z 06012KT 20/08 A3028 RMK A01 T01980082  RH  047%=      5-min Rain = 0
KCO2 251802Z 08015KT 20/08 A3028 RMK A01 T02000080  RH  046%=      5-min Rain = 0
KCO2 251803Z 08011G16KT 20/08 A3028 RMK A01 T01950076  RH  046%=      5-min Rain = 0
KCO2 251804Z 07012KT 19/08 A3028 RMK A01 T01920076  RH  047%=      5-min Rain = 0
KCO2 251805Z 06011G17KT 19/08 A3028 RMK A01 T01920077  RH  047%=      5-min Rain = 0
KCO2 251806Z 05012KT 20/08 A3028 RMK A01 T01950079  RH  047%=      5-min Rain = 0
KCO2 251807Z 04011KT 20/08 A3028 RMK A01 T01970079  RH  046%=      5-min Rain = 0
KCO2 251808Z 04010KT 20/08 A3028 RMK A01 T01960079  RH  047%=      5-min Rain = 0
KCO2 251809Z 07015KT 20/08 A3028 RMK A01 T01950076  RH  046%=      5-min Rain = 0
KCO2 251810Z 08014KT 20/07 A3028 RMK A01 T01950070  RH  044%=      5-min Rain = 0
KCO2 251811Z 06013KT 20/07 A3028 RMK A01 T01950071  RH  045%=      5-min Rain = 0
KCO2 251812Z 07010KT 19/07 A3028 RMK A01 T01940072  RH  045%=      5-min Rain = 0
KCO2 251813Z 08010KT 19/07 A3028 RMK A01 T01940074  RH  045%=      5-min Rain = 0
KCO2 251814Z 06011KT 20/08 A3027 RMK A01 T01950075  RH  046%=      5-min Rain = 0
KCO2 251815Z 05013KT 20/08 A3028 RMK A01 T01990075  RH  045%=      5-min Rain = 0
KCO2 251816Z 05013KT 20/08 A3028 RMK A01 T01990078  RH  045%=      5-min Rain = 0
KCO2 251817Z 07009KT 20/08 A3028 RMK A01 T02000078  RH  045%=      5-min Rain = 0
KCO2 251818Z 04007KT 20/08 A3028 RMK A01 T01980078  RH  046%=      5-min Rain = 0
KCO2 251819Z 04011KT 20/08 A3028 RMK A01 T01990078  RH  046%=      5-min Rain = 0
KCO2 251820Z 05015KT 20/07 A3028 RMK A01 T02010074  RH  044%=      5-min Rain = 0
KCO2 251821Z 06013KT 20/07 A3028 RMK A01 T02010073  RH  043%=      5-min Rain = 0
KCO2 251822Z 07011KT 20/07 A3028 RMK A01 T01980074  RH  045%=      5-min Rain = 0
KCO2 251823Z 08012KT 20/07 A3028 RMK A01 T01980074  RH  045%=      5-min Rain = 0
KCO2 251824Z 09010KT 20/08 A3027 RMK A01 T01980076  RH  045%=      5-min Rain = 0
KCO2 251825Z 06013KT 20/08 A3028 RMK A01 T02000078  RH  045%=      5-min Rain = 0
KCO2 251826Z 07012KT 20/08 A3028 RMK A01 T01980077  RH  045%=      5-min Rain = 0
KCO2 251827Z 08010KT 20/08 A3027 RMK A01 T01970077  RH  046%=      5-min Rain = 0
KCO2 251828Z 08012KT 20/08 A3027 RMK A01 T02000079  RH  046%=      5-min Rain = 0
KCO2 251829Z 08011KT 20/08 A3027 RMK A01 T02020078  RH  045%=      5-min Rain = 0
KCO2 251830Z 06008KT 20/08 A3027 RMK A01 T02010078  RH  045%=      5-min Rain = 0
KCO2 251831Z 06009KT 20/08 A3027 RMK A01 T02010079  RH  045%=      5-min Rain = 0
KCO2 251832Z 07009KT 20/08 A3027 RMK A01 T02040079  RH  045%=      5-min Rain = 0
KCO2 251833Z 07009KT 21/08 A3027 RMK A01 T02060081  RH  045%=      5-min Rain = 0
KCO2 251834Z 06011KT 21/08 A3027 RMK A01 T02060080  RH  044%=      5-min Rain = 0
KCO2 251835Z 06013KT 20/08 A3027 RMK A01 T02040079  RH  045%=      5-min Rain = 0
KCO2 251836Z 07014KT 20/08 A3027 RMK A01 T02040079  RH  044%=      5-min Rain = 0
KCO2 251837Z 06012KT 20/08 A3027 RMK A01 T02020077  RH  045%=      5-min Rain = 0
KCO2 251838Z 05010KT 20/08 A3027 RMK A01 T01990077  RH  045%=      5-min Rain = 0
KCO2 251839Z 06007KT 20/08 A3027 RMK A01 T01990077  RH  045%=      5-min Rain = 0
KCO2 251840Z 03009KT 20/08 A3027 RMK A01 T01980079  RH  046%=      5-min Rain = 0
KCO2 251841Z 04012KT 20/08 A3027 RMK A01 T02020077  RH  044%=      5-min Rain = 0
KCO2 251842Z 08012KT 20/08 A3027 RMK A01 T02040078  RH  044%=      5-min Rain = 0
KCO2 251843Z 07012KT 21/08 A3027 RMK A01 T02070076  RH  043%=      5-min Rain = 0
KCO2 251844Z 05012KT 21/08 A3027 RMK A01 T02080076  RH  042%=      5-min Rain = 0
KCO2 251845Z 06012KT 21/07 A3027 RMK A01 T02070074  RH  042%=      5-min Rain = 0
KCO2 251846Z 06010KT 20/08 A3027 RMK A01 T02040075  RH  043%=      5-min Rain = 0
KCO2 251847Z 07013KT 20/08 A3027 RMK A01 T02040076  RH  044%=      5-min Rain = 0
KCO2 251848Z 07010KT 20/08 A3027 RMK A01 T02030075  RH  044%=      5-min Rain = 0
KCO2 251849Z 06013KT 20/08 A3027 RMK A01 T02020077  RH  044%=      5-min Rain = 0
KCO2 251850Z 05011KT 20/08 A3027 RMK A01 T02030075  RH  044%=      5-min Rain = 0
KCO2 251851Z 05011KT 20/08 A3027 RMK A01 T02030075  RH  044%=      5-min Rain = 0
KCO2 251852Z 07012KT 20/08 A3027 RMK A01 T02030075  RH  044%=      5-min Rain = 0
KCO2 251853Z 08012KT 20/08 A3027 RMK A01 T02040079  RH  044%=      5-min Rain = 0
KCO2 251854Z 08011KT 21/08 A3027 RMK A01 T02070078  RH  043%=      5-min Rain = 0
KCO2 251855Z 04012KT 21/08 A3027 RMK A01 T02090078  RH  043%=      5-min Rain = 0
KCO2 251856Z 04011KT 21/08 A3027 RMK A01 T02080078  RH  043%=      5-min Rain = 0
KCO2 251857Z 05009KT 21/08 A3027 RMK A01 T02060077  RH  043%=      5-min Rain = 0
KCO2 251858Z 05012KT 20/08 A3026 RMK A01 T02040076  RH  044%=      5-min Rain = 0
KCO2 251859Z 06014KT 21/08 A3026 RMK A01 T02060075  RH  043%=      5-min Rain = 0
KCO2 251900Z 09012KT 21/08 A3027 RMK A01 T02080075  RH  042%=      5-min Rain = 0
KCO2 251901Z 08010KT 21/08 A3026 RMK A01 T02090076  RH  042%=      5-min Rain = 0
KCO2 251902Z 05011KT 21/08 A3027 RMK A01 T02090077  RH  043%=      5-min Rain = 0
KCO2 251903Z 05014KT 21/08 A3026 RMK A01 T02100076  RH  042%=      5-min Rain = 0
KCO2 251904Z 06011KT 21/08 A3026 RMK A01 T02090076  RH  042%=      5-min Rain = 0
KCO2 251905Z 07010KT 21/08 A3026 RMK A01 T02090076  RH  042%=      5-min Rain = 0
KCO2 251906Z 06009G14KT 21/08 A3026 RMK A01 T02090076  RH  042%=      5-min Rain = 0
KCO2 251907Z 07013KT 21/08 A3026 RMK A01 T02080076  RH  042%=      5-min Rain = 0
KCO2 251908Z 06015KT 21/07 A3026 RMK A01 T02080073  RH  042%=      5-min Rain = 0
KCO2 251909Z 06012KT 21/07 A3026 RMK A01 T02080072  RH  041%=      5-min Rain = 0
KCO2 251910Z 07010KT 21/07 A3026 RMK A01 T02090073  RH  041%=      5-min Rain = 0
KCO2 251911Z 07008KT 21/07 A3026 RMK A01 T02080072  RH  041%=      5-min Rain = 0
KCO2 251912Z 07010KT 21/08 A3026 RMK A01 T02070075  RH  042%=      5-min Rain = 0
KCO2 251913Z 05010KT 21/08 A3026 RMK A01 T02090076  RH  042%=      5-min Rain = 0
KCO2 251914Z 04008KT 21/08 A3026 RMK A01 T02110076  RH  042%=      5-min Rain = 0
KCO2 251915Z 05013G18KT 21/08 A3026 RMK A01 T02120075  RH  041%=      5-min Rain = 0
KCO2 251916Z 06010KT 21/08 A3026 RMK A01 T02110075  RH  042%=      5-min Rain = 0
KCO2 251917Z 04008KT 21/07 A3026 RMK A01 T02080074  RH  042%=      5-min Rain = 0
KCO2 251918Z 03011KT 21/08 A3026 RMK A01 T02060075  RH  043%=      5-min Rain = 0
KCO2 251919Z 04011KT 21/08 A3026 RMK A01 T02090075  RH  042%=      5-min Rain = 0
KCO2 251920Z 07009KT 21/08 A3026 RMK A01 T02120076  RH  041%=      5-min Rain = 0
KCO2 251921Z 06012KT 21/08 A3026 RMK A01 T02130075  RH  041%=      5-min Rain = 0
KCO2 251922Z 07011KT 21/07 A3026 RMK A01 T02120073  RH  040%=      5-min Rain = 0
KCO2 251923Z 08006KT 21/07 A3026 RMK A01 T02090074  RH  042%=      5-min Rain = 0
KCO2 251924Z 07012G17KT 21/07 A3026 RMK A01 T02100074  RH  041%=      5-min Rain = 0
KCO2 251925Z 04012KT 21/07 A3026 RMK A01 T02110071  RH  040%=      5-min Rain = 0
KCO2 251926Z 08012KT 21/07 A3026 RMK A01 T02120073  RH  041%=      5-min Rain = 0
KCO2 251927Z 08010KT 21/07 A3026 RMK A01 T02140074  RH  040%=      5-min Rain = 0
KCO2 251928Z 06008KT 21/07 A3025 RMK A01 T02110074  RH  041%=      5-min Rain = 0
KCO2 251929Z 04010KT 21/08 A3025 RMK A01 T02100077  RH  042%=      5-min Rain = 0
KCO2 251930Z 05009KT 21/08 A3025 RMK A01 T02120076  RH  041%=      5-min Rain = 0
KCO2 251931Z 04012G17KT 21/08 A3025 RMK A01 T02120077  RH  042%=      5-min Rain = 0
KCO2 251932Z 04013KT 21/08 A3025 RMK A01 T02130075  RH  041%=      5-min Rain = 0
KCO2 251933Z 04014KT 21/07 A3025 RMK A01 T02110074  RH  041%=      5-min Rain = 0
KCO2 251934Z 04011KT 21/07 A3025 RMK A01 T02100074  RH  041%=      5-min Rain = 0
KCO2 251935Z 06013KT 21/07 A3025 RMK A01 T02100074  RH  041%=      5-min Rain = 0
KCO2 251936Z 06012KT 21/07 A3025 RMK A01 T02100072  RH  041%=      5-min Rain = 0
KCO2 251937Z 06011KT 21/07 A3025 RMK A01 T02090072  RH  041%=      5-min Rain = 0
KCO2 251938Z 06011KT 21/07 A3025 RMK A01 T02090072  RH  041%=      5-min Rain = 0
KCO2 251939Z 07009KT 21/07 A3025 RMK A01 T02100073  RH  041%=      5-min Rain = 0
KCO2 251940Z 08013KT 21/07 A3025 RMK A01 T02140074  RH  040%=      5-min Rain = 0
KCO2 251941Z 09009KT 22/07 A3025 RMK A01 T02160072  RH  039%=      5-min Rain = 0
KCO2 251942Z 07007G13KT 22/07 A3025 RMK A01 T02150073  RH  040%=      5-min Rain = 0
KCO2 251943Z 06014KT 22/07 A3025 RMK A01 T02150073  RH  040%=      5-min Rain = 0
KCO2 251944Z 07009KT 21/07 A3025 RMK A01 T02120072  RH  041%=      5-min Rain = 0
KCO2 251945Z 07011KT 21/07 A3025 RMK A01 T02110073  RH  041%=      5-min Rain = 0
KCO2 251946Z 08010KT 21/07 A3025 RMK A01 T02130073  RH  040%=      5-min Rain = 0
KCO2 251947Z 09008KT 22/07 A3025 RMK A01 T02160070  RH  039%=      5-min Rain = 0
KCO2 251948Z 09006KT 22/07 A3025 RMK A01 T02170067  RH  038%=      5-min Rain = 0
KCO2 251949Z 07008KT 22/07 A3025 RMK A01 T02160071  RH  039%=      5-min Rain = 0
KCO2 251950Z 05008G13KT 22/07 A3025 RMK A01 T02150072  RH  040%=      5-min Rain = 0
KCO2 251951Z 04011KT 22/07 A3025 RMK A01 T02160074  RH  040%=      5-min Rain = 0
KCO2 251952Z 05012G17KT 22/07 A3025 RMK A01 T02190073  RH  039%=      5-min Rain = 0
KCO2 251953Z 06012KT 22/07 A3025 RMK A01 T02190073  RH  039%=      5-min Rain = 0
KCO2 251954Z 05014KT 22/07 A3025 RMK A01 T02180072  RH  039%=      5-min Rain = 0
KCO2 251955Z 05013KT 22/07 A3025 RMK A01 T02160072  RH  039%=      5-min Rain = 0
KCO2 251956Z 05012KT 22/07 A3025 RMK A01 T02150071  RH  039%=      5-min Rain = 0
KCO2 251957Z 05009KT 22/07 A3025 RMK A01 T02160071  RH  039%=      5-min Rain = 0
KCO2 251958Z 06010KT 22/07 A3025 RMK A01 T02150068  RH  038%=      5-min Rain = 0
KCO2 251959Z 04008KT 21/07 A3025 RMK A01 T02120068  RH  039%=      5-min Rain = 0
KCO2 252000Z 06007KT 21/07 A3025 RMK A01 T02120070  RH  040%=      5-min Rain = 0
KCO2 252001Z 09008KT 22/07 A3025 RMK A01 T02150072  RH  040%=      5-min Rain = 0
KCO2 252002Z 09009G15KT 22/08 A3025 RMK A01 T02190076  RH  040%=      5-min Rain = 0
KCO2 252003Z 09013KT 22/07 A3025 RMK A01 T02220073  RH  038%=      5-min Rain = 0
KCO2 252004Z 09009KT 22/07 A3025 RMK A01 T02210073  RH  038%=      5-min Rain = 0
KCO2 252005Z 09009KT 22/08 A3024 RMK A01 T02210075  RH  039%=      5-min Rain = 0
KCO2 252006Z 09013KT 22/08 A3024 RMK A01 T02210075  RH  039%=      5-min Rain = 0
KCO2 252007Z 09010KT 22/07 A3024 RMK A01 T02210073  RH  038%=      5-min Rain = 0
KCO2 252008Z 07011G20KT 22/08 A3024 RMK A01 T02210076  RH  039%=      5-min Rain = 0
KCO2 252009Z 06009KT 22/08 A3024 RMK A01 T02230076  RH  039%=      5-min Rain = 0
KCO2 252010Z 05011KT 22/08 A3024 RMK A01 T02240076  RH  038%=      5-min Rain = 0
KCO2 252011Z 07008KT 22/07 A3024 RMK A01 T02220072  RH  038%=      5-min Rain = 0
KCO2 252012Z 07013KT 22/07 A3024 RMK A01 T02180073  RH  039%=      5-min Rain = 0
KCO2 252013Z 07013G18KT 22/07 A3024 RMK A01 T02180074  RH  039%=      5-min Rain = 0
KCO2 252014Z 07012KT 22/07 A3024 RMK A01 T02180072  RH  039%=      5-min Rain = 0
KCO2 252015Z 06012KT 22/07 A3024 RMK A01 T02170071  RH  039%=      5-min Rain = 0
KCO2 252016Z 04008KT 21/07 A3024 RMK A01 T02140070  RH  039%=      5-min Rain = 0
KCO2 252017Z 05007KT 21/07 A3024 RMK A01 T02130072  RH  040%=      5-min Rain = 0
KCO2 252018Z 08007G12KT 21/07 A3024 RMK A01 T02140072  RH  040%=      5-min Rain = 0
KCO2 252019Z 06012KT 22/08 A3024 RMK A01 T02160075  RH  040%=      5-min Rain = 0
KCO2 252020Z 06010KT 22/07 A3024 RMK A01 T02210074  RH  039%=      5-min Rain = 0
KCO2 252021Z 06007KT 22/07 A3024 RMK A01 T02200072  RH  038%=      5-min Rain = 0
KCO2 252022Z 09005KT 22/07 A3024 RMK A01 T02170074  RH  040%=      5-min Rain = 0
KCO2 252023Z 10007KT 22/07 A3024 RMK A01 T02220070  RH  037%=      5-min Rain = 0
KCO2 252024Z 09007KT 23/07 A3024 RMK A01 T02250068  RH  036%=      5-min Rain = 0
KCO2 252025Z 07008KT 23/07 A3024 RMK A01 T02270070  RH  036%=      5-min Rain = 0
KCO2 252026Z 09009KT 23/07 A3024 RMK A01 T02270072  RH  037%=      5-min Rain = 0
KCO2 252027Z 08011G16KT 23/07 A3024 RMK A01 T02270071  RH  037%=      5-min Rain = 0
KCO2 252028Z 07009KT 23/07 A3024 RMK A01 T02280072  RH  037%=      5-min Rain = 0
KCO2 252029Z 08007KT 23/07 A3023 RMK A01 T02280072  RH  037%=      5-min Rain = 0
KCO2 252030Z 05009KT 23/07 A3023 RMK A01 T02280073  RH  037%=      5-min Rain = 0
KCO2 252031Z 05011KT 23/07 A3023 RMK A01 T02260070  RH  037%=      5-min Rain = 0
KCO2 252032Z 04008KT 22/07 A3023 RMK A01 T02220069  RH  037%=      5-min Rain = 0
KCO2 252033Z 08011G16KT 22/07 A3023 RMK A01 T02240073  RH  038%=      5-min Rain = 0
KCO2 252034Z 07014KT 23/07 A3023 RMK A01 T02260072  RH  037%=      5-min Rain = 0
KCO2 252035Z 06013KT 22/07 A3023 RMK A01 T02220071  RH  038%=      5-min Rain = 0
KCO2 252036Z 08011KT 22/07 A3023 RMK A01 T02220071  RH  038%=      5-min Rain = 0
KCO2 252037Z 08009KT 22/07 A3023 RMK A01 T02200069  RH  038%=      5-min Rain = 0
KCO2 252038Z 08010KT 22/07 A3023 RMK A01 T02180070  RH  038%=      5-min Rain = 0
KCO2 252039Z 05013KT 22/07 A3023 RMK A01 T02170070  RH  039%=      5-min Rain = 0
KCO2 252040Z 06009KT 22/07 A3023 RMK A01 T02170069  RH  038%=      5-min Rain = 0
KCO2 252041Z 07010KT 22/07 A3023 RMK A01 T02160071  RH  039%=      5-min Rain = 0
KCO2 252042Z 06011KT 22/07 A3023 RMK A01 T02180070  RH  038%=      5-min Rain = 0
KCO2 252043Z 07013KT 22/07 A3023 RMK A01 T02200072  RH  038%=      5-min Rain = 0
KCO2 252044Z 08012KT 22/07 A3023 RMK A01 T02220069  RH  037%=      5-min Rain = 0
KCO2 252045Z 07012KT 22/07 A3023 RMK A01 T02220065  RH  036%=      5-min Rain = 0
KCO2 252046Z 10009KT 22/06 A3023 RMK A01 T02190064  RH  037%=      5-min Rain = 0
KCO2 252047Z 10013KT 22/07 A3023 RMK A01 T02190065  RH  037%=      5-min Rain = 0
KCO2 252048Z 09011KT 22/07 A3023 RMK A01 T02210069  RH  037%=      5-min Rain = 0
KCO2 252049Z 08010KT 22/07 A3023 RMK A01 T02220071  RH  038%=      5-min Rain = 0
KCO2 252050Z 06010G15KT 22/07 A3023 RMK A01 T02220071  RH  038%=      5-min Rain = 0
KCO2 252051Z 07008KT 22/07 A3022 RMK A01 T02200072  RH  038%=      5-min Rain = 0
KCO2 252052Z 08009G15KT 22/07 A3022 RMK A01 T02200072  RH  038%=      5-min Rain = 0
KCO2 252053Z 10013KT 22/07 A3023 RMK A01 T02210070  RH  038%=      5-min Rain = 0
KCO2 252054Z 10010KT 22/07 A3022 RMK A01 T02230069  RH  037%=      5-min Rain = 0
KCO2 252055Z 11008KT 22/07 A3022 RMK A01 T02220069  RH  037%=      5-min Rain = 0
KCO2 252056Z 10008KT 22/07 A3022 RMK A01 T02210071  RH  038%=      5-min Rain = 0
KCO2 252057Z 08010KT 22/07 A3022 RMK A01 T02230069  RH  037%=      5-min Rain = 0
KCO2 252058Z 07009G14KT 22/07 A3022 RMK A01 T02210071  RH  038%=      5-min Rain = 0
KCO2 252059Z 08009KT 22/07 A3022 RMK A01 T02220072  RH  038%=      5-min Rain = 0
KCO2 252100Z 07008KT 22/07 A3022 RMK A01 T02230073  RH  038%=      5-min Rain = 0
KCO2 252101Z 08010KT 23/07 A3022 RMK A01 T02270072  RH  037%=      5-min Rain = 0
KCO2 252102Z 08014KT 23/07 A3022 RMK A01 T02270069  RH  036%=      5-min Rain = 0
KCO2 252103Z 08010KT 23/07 A3022 RMK A01 T02250066  RH  036%=      5-min Rain = 0
KCO2 252104Z 07012G17KT 22/07 A3022 RMK A01 T02230067  RH  037%=      5-min Rain = 0
KCO2 252105Z 07014KT 22/07 A3022 RMK A01 T02210068  RH  037%=      5-min Rain = 0
KCO2 252106Z 06012KT 22/07 A3022 RMK A01 T02200068  RH  037%=      5-min Rain = 0
KCO2 252107Z 06012KT 22/07 A3022 RMK A01 T02210067  RH  037%=      5-min Rain = 0
KCO2 252108Z 06011KT 22/06 A3022 RMK A01 T02190064  RH  037%=      5-min Rain = 0
KCO2 252109Z 05009KT 22/06 A3022 RMK A01 T02170064  RH  037%=      5-min Rain = 0
KCO2 252110Z 05011KT 22/07 A3022 RMK A01 T02170065  RH  037%=      5-min Rain = 0
KCO2 252111Z 06010KT 22/06 A3022 RMK A01 T02190064  RH  037%=      5-min Rain = 0
KCO2 252112Z 07012KT 22/07 A3022 RMK A01 T02200065  RH  037%=      5-min Rain = 0
KCO2 252113Z 09012KT 22/07 A3022 RMK A01 T02200065  RH  037%=      5-min Rain = 0
KCO2 252114Z 09012KT 22/07 A3022 RMK A01 T02210065  RH  036%=      5-min Rain = 0
KCO2 252115Z 08010KT 22/07 A3022 RMK A01 T02220065  RH  036%=      5-min Rain = 0
KCO2 252116Z 09009KT 22/07 A3022 RMK A01 T02220065  RH  036%=      5-min Rain = 0
KCO2 252117Z 10006KT 22/06 A3022 RMK A01 T02210063  RH  036%=      5-min Rain = 0
KCO2 252118Z 10005KT 22/06 A3022 RMK A01 T02200064  RH  036%=      5-min Rain = 0
KCO2 252119Z 08006KT 22/07 A3022 RMK A01 T02210065  RH  036%=      5-min Rain = 0
KCO2 252120Z 08006KT 22/07 A3022 RMK A01 T02240067  RH  036%=      5-min Rain = 0
KCO2 252121Z 09005KT 23/07 A3022 RMK A01 T02270065  RH  035%=      5-min Rain = 0
KCO2 252122Z 12004KT 23/07 A3022 RMK A01 T02270066  RH  035%=      5-min Rain = 0
KCO2 252123Z 08005KT 23/07 A3022 RMK A01 T02270065  RH  035%=      5-min Rain = 0
KCO2 252124Z 07008KT 23/07 A3022 RMK A01 T02280067  RH  035%=      5-min Rain = 0
KCO2 252125Z 10010KT 23/07 A3022 RMK A01 T02300069  RH  036%=      5-min Rain = 0
KCO2 252126Z 09009KT 23/07 A3022 RMK A01 T02300068  RH  035%=      5-min Rain = 0
KCO2 252127Z 07010KT 23/07 A3022 RMK A01 T02300066  RH  035%=      5-min Rain = 0
KCO2 252128Z 08011KT 22/07 A3022 RMK A01 T02240065  RH  036%=      5-min Rain = 0
KCO2 252129Z 08011G16KT 22/07 A3022 RMK A01 T02220065  RH  036%=      5-min Rain = 0
KCO2 252130Z 08009KT 22/07 A3022 RMK A01 T02210065  RH  037%=      5-min Rain = 0
KCO2 252131Z 08006KT 22/07 A3022 RMK A01 T02220066  RH  036%=      5-min Rain = 0
KCO2 252132Z 07010KT 22/07 A3022 RMK A01 T02240066  RH  036%=      5-min Rain = 0
KCO2 252133Z 06009KT 23/07 A3022 RMK A01 T02250066  RH  036%=      5-min Rain = 0
KCO2 252134Z 07007KT 22/07 A3022 RMK A01 T02240065  RH  036%=      5-min Rain = 0
KCO2 252135Z 09008KT 22/06 A3022 RMK A01 T02210063  RH  036%=      5-min Rain = 0
KCO2 252136Z 09007KT 22/06 A3022 RMK A01 T02220062  RH  035%=      5-min Rain = 0
KCO2 252137Z 07005KT 22/06 A3022 RMK A01 T02210063  RH  036%=      5-min Rain = 0
KCO2 252138Z 08010KT 22/06 A3022 RMK A01 T02200063  RH  036%=      5-min Rain = 0
KCO2 252139Z 08011KT 22/06 A3022 RMK A01 T02190063  RH  036%=      5-min Rain = 0
KCO2 252140Z 08011KT 22/06 A3022 RMK A01 T02200063  RH  036%=      5-min Rain = 0
KCO2 252141Z 07010KT 22/06 A3022 RMK A01 T02190063  RH  036%=      5-min Rain = 0
KCO2 252142Z 05008KT 22/06 A3022 RMK A01 T02170061  RH  036%=      5-min Rain = 0
KCO2 252143Z 04007KT 22/06 A3021 RMK A01 T02160063  RH  037%=      5-min Rain = 0
KCO2 252144Z 03008KT 22/06 A3021 RMK A01 T02170062  RH  037%=      5-min Rain = 0
KCO2 252145Z 06011KT 22/06 A3021 RMK A01 T02180062  RH  036%=      5-min Rain = 0
KCO2 252146Z 05010KT 22/06 A3021 RMK A01 T02180062  RH  036%=      5-min Rain = 0
KCO2 252147Z 07006KT 22/06 A3021 RMK A01 T02210064  RH  036%=      5-min Rain = 0
KCO2 252148Z 08007KT 22/06 A3021 RMK A01 T02210063  RH  036%=      5-min Rain = 0
KCO2 252149Z 08005KT 22/06 A3021 RMK A01 T02200062  RH  036%=      5-min Rain = 0
KCO2 252150Z 08009KT 22/06 A3021 RMK A01 T02170063  RH  037%=      5-min Rain = 0
KCO2 252151Z 08009KT 22/07 A3021 RMK A01 T02170065  RH  037%=      5-min Rain = 0
KCO2 252152Z 09010KT 22/07 A3021 RMK A01 T02170065  RH  037%=      5-min Rain = 0
KCO2 252153Z 07009KT 22/07 A3021 RMK A01 T02160066  RH  038%=      5-min Rain = 0
KCO2 252154Z 06011KT 22/07 A3021 RMK A01 T02160067  RH  038%=      5-min Rain = 0
KCO2 252155Z 07009KT 22/06 A3021 RMK A01 T02150064  RH  037%=      5-min Rain = 0
KCO2 252156Z 10009KT 22/07 A3021 RMK A01 T02150066  RH  038%=      5-min Rain = 0
KCO2 252157Z 10009KT 22/07 A3021 RMK A01 T02180067  RH  038%=      5-min Rain = 0
KCO2 252158Z 09007KT 22/07 A3021 RMK A01 T02210069  RH  037%=      5-min Rain = 0
KCO2 252159Z 10009KT 23/07 A3021 RMK A01 T02250068  RH  036%=      5-min Rain = 0
KCO2 252200Z 10008KT 23/07 A3021 RMK A01 T02270067  RH  036%=      5-min Rain = 0
KCO2 252201Z 09007KT 23/07 A3021 RMK A01 T02260069  RH  036%=      5-min Rain = 0
KCO2 252202Z 07009KT 23/07 A3021 RMK A01 T02270069  RH  036%=      5-min Rain = 0
KCO2 252203Z 04009KT 23/07 A3021 RMK A01 T02250067  RH  036%=      5-min Rain = 0
KCO2 252204Z 05008KT 22/07 A3021 RMK A01 T02220067  RH  036%=      5-min Rain = 0
KCO2 252205Z 08008KT 22/07 A3021 RMK A01 T02230068  RH  037%=      5-min Rain = 0
KCO2 252206Z 06011KT 22/07 A3021 RMK A01 T02240067  RH  036%=      5-min Rain = 0
KCO2 252207Z 04009KT 22/07 A3021 RMK A01 T02240067  RH  036%=      5-min Rain = 0
KCO2 252208Z 03008KT 22/07 A3021 RMK A01 T02240066  RH  036%=      5-min Rain = 0
KCO2 252209Z 06008KT 22/07 A3021 RMK A01 T02230066  RH  036%=      5-min Rain = 0
KCO2 252210Z 07008KT 23/07 A3021 RMK A01 T02250069  RH  036%=      5-min Rain = 0
KCO2 252211Z 08010G17KT 23/07 A3021 RMK A01 T02250067  RH  036%=      5-min Rain = 0
KCO2 252212Z 06012KT 22/07 A3021 RMK A01 T02230068  RH  037%=      5-min Rain = 0
KCO2 252213Z 06010KT 22/07 A3021 RMK A01 T02230068  RH  036%=      5-min Rain = 0
KCO2 252214Z 05009KT 22/07 A3021 RMK A01 T02220068  RH  037%=      5-min Rain = 0
KCO2 252215Z 06010KT 22/07 A3021 RMK A01 T02210068  RH  037%=      5-min Rain = 0
KCO2 252216Z 08010KT 22/07 A3021 RMK A01 T02210069  RH  037%=      5-min Rain = 0
KCO2 252217Z 10010KT 22/07 A3021 RMK A01 T02210067  RH  037%=      5-min Rain = 0
KCO2 252218Z 10008KT 22/07 A3021 RMK A01 T02210068  RH  037%=      5-min Rain = 0
KCO2 252219Z 10008KT 22/07 A3021 RMK A01 T02220069  RH  037%=      5-min Rain = 0
KCO2 252220Z 07008KT 22/07 A3021 RMK A01 T02230069  RH  037%=      5-min Rain = 0
KCO2 252221Z 05008KT 22/07 A3021 RMK A01 T02230067  RH  036%=      5-min Rain = 0
KCO2 252222Z 06007KT 22/07 A3021 RMK A01 T02220067  RH  037%=      5-min Rain = 0
KCO2 252223Z 06006KT 22/07 A3021 RMK A01 T02210067  RH  037%=      5-min Rain = 0
KCO2 252224Z 09005KT 22/07 A3021 RMK A01 T02210068  RH  037%=      5-min Rain = 0
KCO2 252225Z 10007KT 22/07 A3021 RMK A01 T02210066  RH  036%=      5-min Rain = 0
KCO2 252226Z 08009KT 22/07 A3021 RMK A01 T02210065  RH  036%=      5-min Rain = 0
KCO2 252227Z 06010KT 22/06 A3021 RMK A01 T02200064  RH  037%=      5-min Rain = 0
KCO2 252228Z 05007KT 22/07 A3021 RMK A01 T02190067  RH  037%=      5-min Rain = 0
KCO2 252229Z 05007KT 22/07 A3021 RMK A01 T02200067  RH  037%=      5-min Rain = 0
KCO2 252230Z 05006KT 22/07 A3021 RMK A01 T02200065  RH  037%=      5-min Rain = 0
KCO2 252231Z 06007KT 22/06 A3021 RMK A01 T02170064  RH  037%=      5-min Rain = 0
KCO2 252232Z 07006KT 22/07 A3021 RMK A01 T02160066  RH  038%=      5-min Rain = 0
KCO2 252233Z 08010KT 22/07 A3021 RMK A01 T02160069  RH  039%=      5-min Rain = 0
KCO2 252234Z 06008G13KT 22/07 A3021 RMK A01 T02160068  RH  038%=      5-min Rain = 0
KCO2 252235Z 04010KT 22/07 A3021 RMK A01 T02150067  RH  038%=      5-min Rain = 0
KCO2 252236Z 03009KT 21/07 A3021 RMK A01 T02140067  RH  038%=      5-min Rain = 0
KCO2 252237Z 05010KT 21/07 A3021 RMK A01 T02140068  RH  039%=      5-min Rain = 0
KCO2 252238Z 06009KT 21/07 A3021 RMK A01 T02140068  RH  039%=      5-min Rain = 0
KCO2 252239Z 05008KT 21/07 A3021 RMK A01 T02140068  RH  039%=      5-min Rain = 0
KCO2 252240Z 05010KT 21/07 A3021 RMK A01 T02140069  RH  039%=      5-min Rain = 0
KCO2 252241Z 05013KT 21/07 A3021 RMK A01 T02140069  RH  039%=      5-min Rain = 0
KCO2 252242Z 05010KT 21/07 A3021 RMK A01 T02140069  RH  039%=      5-min Rain = 0
KCO2 252243Z 06011KT 22/07 A3021 RMK A01 T02150070  RH  039%=      5-min Rain = 0
KCO2 252244Z 06012KT 22/07 A3021 RMK A01 T02150069  RH  039%=      5-min Rain = 0
KCO2 252245Z 09012KT 22/07 A3021 RMK A01 T02150070  RH  039%=      5-min Rain = 0
KCO2 252246Z 08013KT 22/07 A3021 RMK A01 T02150068  RH  039%=      5-min Rain = 0
KCO2 252247Z 09009KT 21/07 A3021 RMK A01 T02130067  RH  039%=      5-min Rain = 0
KCO2 252248Z 09008KT 21/07 A3021 RMK A01 T02120067  RH  039%=      5-min Rain = 0
KCO2 252249Z 07009KT 21/07 A3021 RMK A01 T02130068  RH  039%=      5-min Rain = 0
KCO2 252250Z 05009KT 21/07 A3022 RMK A01 T02130068  RH  039%=      5-min Rain = 0
KCO2 252251Z 06008KT 21/07 A3021 RMK A01 T02130068  RH  039%=      5-min Rain = 0
KCO2 252252Z 06007KT 21/07 A3021 RMK A01 T02120068  RH  039%=      5-min Rain = 0
KCO2 252253Z 08011KT 21/07 A3022 RMK A01 T02140071  RH  040%=      5-min Rain = 0
KCO2 252254Z 08010KT 22/07 A3022 RMK A01 T02170072  RH  039%=      5-min Rain = 0
KCO2 252255Z 09010KT 22/07 A3022 RMK A01 T02190070  RH  038%=      5-min Rain = 0
KCO2 252256Z 09009KT 22/07 A3022 RMK A01 T02190070  RH  038%=      5-min Rain = 0
KCO2 252257Z 09009KT 22/07 A3022 RMK A01 T02190071  RH  038%=      5-min Rain = 0
KCO2 252258Z 09009KT 22/07 A3022 RMK A01 T02200070  RH  038%=      5-min Rain = 0
KCO2 252259Z 09010KT 22/07 A3022 RMK A01 T02200070  RH  038%=      5-min Rain = 0
KCO2 252300Z 07011KT 22/07 A3022 RMK A01 T02200070  RH  038%=      5-min Rain = 0
KCO2 252301Z 07010KT 22/07 A3022 RMK A01 T02200069  RH  038%=      5-min Rain = 0
KCO2 252302Z 10007KT 22/07 A3022 RMK A01 T02190069  RH  038%=      5-min Rain = 0
KCO2 252303Z 09006KT 22/07 A3022 RMK A01 T02170068  RH  038%=      5-min Rain = 0
KCO2 252304Z 07010KT 22/07 A3022 RMK A01 T02170070  RH  039%=      5-min Rain = 0
KCO2 252305Z 07011KT 22/07 A3022 RMK A01 T02170069  RH  038%=      5-min Rain = 0
KCO2 252306Z 08010KT 22/07 A3022 RMK A01 T02160068  RH  038%=      5-min Rain = 0
KCO2 252307Z 08009KT 22/07 A3022 RMK A01 T02150070  RH  039%=      5-min Rain = 0
KCO2 252308Z 06009KT 22/07 A3022 RMK A01 T02150071  RH  039%=      5-min Rain = 0
KCO2 252309Z 05010KT 22/07 A3022 RMK A01 T02160070  RH  039%=      5-min Rain = 0
KCO2 252310Z 06012KT 22/07 A3022 RMK A01 T02160071  RH  039%=      5-min Rain = 0
KCO2 252311Z 06012KT 22/07 A3022 RMK A01 T02160070  RH  039%=      5-min Rain = 0
KCO2 252312Z 06010KT 22/07 A3022 RMK A01 T02150071  RH  039%=      5-min Rain = 0
KCO2 252313Z 07009KT 22/07 A3022 RMK A01 T02150071  RH  039%=      5-min Rain = 0
KCO2 252314Z 06009G14KT 22/07 A3022 RMK A01 T02160071  RH  039%=      5-min Rain = 0
KCO2 252315Z 05012KT 22/07 A3022 RMK A01 T02170071  RH  039%=      5-min Rain = 0
KCO2 252316Z 07010KT 22/07 A3022 RMK A01 T02170071  RH  039%=      5-min Rain = 0
KCO2 252317Z 08008KT 22/07 A3022 RMK A01 T02180073  RH  039%=      5-min Rain = 0
KCO2 252318Z 07010KT 22/07 A3022 RMK A01 T02190073  RH  039%=      5-min Rain = 0
KCO2 252319Z 09010KT 22/07 A3022 RMK A01 T02180071  RH  039%=      5-min Rain = 0
KCO2 252320Z 09010KT 21/07 A3022 RMK A01 T02140070  RH  039%=      5-min Rain = 0
KCO2 252321Z 08013KT 21/07 A3022 RMK A01 T02120070  RH  040%=      5-min Rain = 0
KCO2 252322Z 07012KT 21/07 A3022 RMK A01 T02110070  RH  040%=      5-min Rain = 0
KCO2 252323Z 08011KT 21/07 A3022 RMK A01 T02100070  RH  040%=      5-min Rain = 0
KCO2 252324Z 08011KT 21/07 A3022 RMK A01 T02100071  RH  041%=      5-min Rain = 0
KCO2 252325Z 07010KT 21/07 A3022 RMK A01 T02100070  RH  040%=      5-min Rain = 0
KCO2 252326Z 07008KT 21/07 A3022 RMK A01 T02100070  RH  040%=      5-min Rain = 0
KCO2 252327Z 06008KT 21/07 A3022 RMK A01 T02100070  RH  040%=      5-min Rain = 0
KCO2 252328Z 06009KT 21/07 A3022 RMK A01 T02120069  RH  040%=      5-min Rain = 0
KCO2 252329Z 06010KT 21/07 A3022 RMK A01 T02120069  RH  040%=      5-min Rain = 0
KCO2 252330Z 08008KT 21/07 A3022 RMK A01 T02110069  RH  040%=      5-min Rain = 0
KCO2 252331Z 06009KT 21/07 A3022 RMK A01 T02110070  RH  040%=      5-min Rain = 0
KCO2 252332Z 07011KT 21/07 A3022 RMK A01 T02110070  RH  040%=      5-min Rain = 0
KCO2 252333Z 10011KT 21/07 A3022 RMK A01 T02120071  RH  040%=      5-min Rain = 0
KCO2 252334Z 09010KT 21/07 A3022 RMK A01 T02130070  RH  039%=      5-min Rain = 0
KCO2 252335Z 06011KT 21/07 A3022 RMK A01 T02130070  RH  039%=      5-min Rain = 0
KCO2 252336Z 06010KT 21/07 A3022 RMK A01 T02140070  RH  039%=      5-min Rain = 0
KCO2 252337Z 06009KT 21/07 A3022 RMK A01 T02130070  RH  039%=      5-min Rain = 0
KCO2 252338Z 08008KT 21/07 A3022 RMK A01 T02130070  RH  040%=      5-min Rain = 0
KCO2 252339Z 07008KT 21/07 A3022 RMK A01 T02130070  RH  040%=      5-min Rain = 0
KCO2 252340Z 08008KT 21/07 A3022 RMK A01 T02120069  RH  039%=      5-min Rain = 0
KCO2 252341Z 07010KT 21/07 A3022 RMK A01 T02110069  RH  040%=      5-min Rain = 0
KCO2 252342Z 09009KT 21/07 A3022 RMK A01 T02120070  RH  040%=      5-min Rain = 0
KCO2 252343Z 09012KT 21/07 A3022 RMK A01 T02120069  RH  040%=      5-min Rain = 0
KCO2 252344Z 10009KT 21/07 A3022 RMK A01 T02110069  RH  040%=      5-min Rain = 0
KCO2 252345Z 09009KT 21/07 A3022 RMK A01 T02100069  RH  040%=      5-min Rain = 0
KCO2 252346Z 09010KT 21/07 A3022 RMK A01 T02100069  RH  040%=      5-min Rain = 0
KCO2 252347Z 07011KT 21/07 A3022 RMK A01 T02090070  RH  040%=      5-min Rain = 0
KCO2 252348Z 08009KT 21/07 A3022 RMK A01 T02090072  RH  041%=      5-min Rain = 0
KCO2 252349Z 07011KT 21/07 A3022 RMK A01 T02090071  RH  041%=      5-min Rain = 0
KCO2 252350Z 07009KT 21/07 A3022 RMK A01 T02090071  RH  041%=      5-min Rain = 0
KCO2 252351Z 07007KT 21/07 A3022 RMK A01 T02080071  RH  041%=      5-min Rain = 0
KCO2 252352Z 08007KT 21/07 A3022 RMK A01 T02080072  RH  041%=      5-min Rain = 0
KCO2 252353Z 08010KT 21/07 A3023 RMK A01 T02100072  RH  041%=      5-min Rain = 0
KCO2 252354Z 08011KT 21/07 A3023 RMK A01 T02100071  RH  041%=      5-min Rain = 0
KCO2 252355Z 08011KT 21/07 A3023 RMK A01 T02090070  RH  040%=      5-min Rain = 0
KCO2 252356Z 08010KT 21/07 A3023 RMK A01 T02080070  RH  041%=      5-min Rain = 0
KCO2 252357Z 07010KT 21/07 A3023 RMK A01 T02070070  RH  041%=      5-min Rain = 0
KCO2 252358Z 07010KT 21/07 A3023 RMK A01 T02070069  RH  041%=      5-min Rain = 0
KCO2 252359Z 07009KT 21/07 A3023 RMK A01 T02070070  RH  041%=      5-min Rain = 0
KCO2 260000Z 07007KT 21/07 A3023 RMK A01 T02070070  RH  041%=      5-min Rain = 0
KCO2 260001Z 08007KT 21/07 A3023 RMK A01 T02080071  RH  041%=      5-min Rain = 0
KCO2 260002Z 08007KT 21/07 A3023 RMK A01 T02080070  RH  041%=      5-min Rain = 0
KCO2 260003Z 08011KT 21/07 A3023 RMK A01 T02090070  RH  040%=      5-min Rain = 0
KCO2 260004Z 07010KT 21/07 A3023 RMK A01 T02090069  RH  040%=      5-min Rain = 0
KCO2 260005Z 07010KT 21/07 A3023 RMK A01 T02080068  RH  040%=      5-min Rain = 0
KCO2 260006Z 08010KT 21/07 A3023 RMK A01 T02070068  RH  040%=      5-min Rain = 0
KCO2 260007Z 08009KT 21/07 A3023 RMK A01 T02070067  RH  040%=      5-min Rain = 0
KCO2 260008Z 07008KT 21/07 A3023 RMK A01 T02060067  RH  040%=      5-min Rain = 0
KCO2 260009Z 07009KT 21/07 A3023 RMK A01 T02070068  RH  040%=      5-min Rain = 0
KCO2 260010Z 07009KT 21/07 A3023 RMK A01 T02060067  RH  040%=      5-min Rain = 0
KCO2 260011Z 06010KT 21/07 A3023 RMK A01 T02050067  RH  041%=      5-min Rain = 0
KCO2 260012Z 07010KT 20/07 A3023 RMK A01 T02040069  RH  041%=      5-min Rain = 0
KCO2 260013Z 08009KT 20/07 A3023 RMK A01 T02030070  RH  042%=      5-min Rain = 0
KCO2 260014Z 08011KT 20/07 A3023 RMK A01 T02020070  RH  042%=      5-min Rain = 0
KCO2 260015Z 08012KT 20/07 A3023 RMK A01 T02010070  RH  043%=      5-min Rain = 0
KCO2 260016Z 08010KT 20/07 A3023 RMK A01 T02010071  RH  043%=      5-min Rain = 0
KCO2 260017Z 08010KT 20/07 A3023 RMK A01 T02010072  RH  043%=      5-min Rain = 0
KCO2 260018Z 07009KT 20/07 A3023 RMK A01 T02010072  RH  043%=      5-min Rain = 0
KCO2 260019Z 08010KT 20/07 A3023 RMK A01 T02020073  RH  043%=      5-min Rain = 0
KCO2 260020Z 08009KT 20/07 A3023 RMK A01 T02020073  RH  043%=      5-min Rain = 0
KCO2 260021Z 08011KT 20/07 A3023 RMK A01 T02020073  RH  043%=      5-min Rain = 0
KCO2 260022Z 07010KT 20/07 A3023 RMK A01 T02020072  RH  043%=      5-min Rain = 0
KCO2 260023Z 07010KT 20/07 A3023 RMK A01 T02020072  RH  043%=      5-min Rain = 0
KCO2 260024Z 06009KT 20/07 A3023 RMK A01 T02010072  RH  043%=      5-min Rain = 0
KCO2 260025Z 06009KT 20/07 A3023 RMK A01 T02010072  RH  043%=      5-min Rain = 0
KCO2 260026Z 06010KT 20/07 A3023 RMK A01 T02010072  RH  043%=      5-min Rain = 0
KCO2 260027Z 05010KT 20/07 A3023 RMK A01 T02000072  RH  043%=      5-min Rain = 0
KCO2 260028Z 05011KT 20/07 A3023 RMK A01 T01990073  RH  044%=      5-min Rain = 0
KCO2 260029Z 06011KT 20/07 A3023 RMK A01 T01980073  RH  044%=      5-min Rain = 0
KCO2 260030Z 05010KT 20/07 A3023 RMK A01 T01980073  RH  044%=      5-min Rain = 0
KCO2 260031Z 05010KT 20/07 A3023 RMK A01 T01970073  RH  045%=      5-min Rain = 0
KCO2 260032Z 05010KT 20/07 A3023 RMK A01 T01960073  RH  045%=      5-min Rain = 0
KCO2 260033Z 05008KT 20/07 A3023 RMK A01 T01950073  RH  045%=      5-min Rain = 0
KCO2 260034Z 05011KT 20/07 A3023 RMK A01 T01960073  RH  045%=      5-min Rain = 0
KCO2 260035Z 06012KT 20/07 A3023 RMK A01 T01950073  RH  045%=      5-min Rain = 0
KCO2 260036Z 06012KT 19/07 A3023 RMK A01 T01940073  RH  045%=      5-min Rain = 0
KCO2 260037Z 06011KT 19/07 A3023 RMK A01 T01940073  RH  045%=      5-min Rain = 0
KCO2 260038Z 06011KT 19/07 A3023 RMK A01 T01940073  RH  046%=      5-min Rain = 0
KCO2 260039Z 06010KT 19/07 A3023 RMK A01 T01930074  RH  046%=      5-min Rain = 0
KCO2 260040Z 06009KT 19/07 A3023 RMK A01 T01930074  RH  046%=      5-min Rain = 0
KCO2 260041Z 06010KT 19/07 A3023 RMK A01 T01920074  RH  046%=      5-min Rain = 0
KCO2 260042Z 06010KT 19/07 A3023 RMK A01 T01910074  RH  046%=      5-min Rain = 0
KCO2 260043Z 06010KT 19/07 A3023 RMK A01 T01910074  RH  047%=      5-min Rain = 0
KCO2 260044Z 06011KT 19/07 A3023 RMK A01 T01900074  RH  047%=      5-min Rain = 0
KCO2 260045Z 06010KT 19/07 A3023 RMK A01 T01900074  RH  047%=      5-min Rain = 0
KCO2 260046Z 06011KT 19/07 A3023 RMK A01 T01890074  RH  047%=      5-min Rain = 0
KCO2 260047Z 06009KT 19/07 A3023 RMK A01 T01880074  RH  047%=      5-min Rain = 0
KCO2 260048Z 06010KT 19/07 A3024 RMK A01 T01880074  RH  047%=      5-min Rain = 0
KCO2 260049Z 06010KT 19/07 A3024 RMK A01 T01880074  RH  048%=      5-min Rain = 0
KCO2 260050Z 06009KT 19/07 A3024 RMK A01 T01870074  RH  048%=      5-min Rain = 0
KCO2 260051Z 05010KT 19/07 A3024 RMK A01 T01860074  RH  048%=      5-min Rain = 0
KCO2 260052Z 05010KT 19/07 A3024 RMK A01 T01850074  RH  048%=      5-min Rain = 0
KCO2 260053Z 06009KT 19/07 A3024 RMK A01 T01850074  RH  048%=      5-min Rain = 0
KCO2 260054Z 06009KT 18/07 A3024 RMK A01 T01840074  RH  049%=      5-min Rain = 0
KCO2 260055Z 05009KT 18/07 A3024 RMK A01 T01830074  RH  049%=      5-min Rain = 0
KCO2 260056Z 05009KT 18/07 A3024 RMK A01 T01830074  RH  049%=      5-min Rain = 0
KCO2 260057Z 06009KT 18/07 A3024 RMK A01 T01820074  RH  049%=      5-min Rain = 0
KCO2 260058Z 05009KT 18/07 A3024 RMK A01 T01820074  RH  049%=      5-min Rain = 0
KCO2 260059Z 06009KT 18/07 A3024 RMK A01 T01810073  RH  049%=      5-min Rain = 0
KCO2 260100Z 05009KT 18/07 A3024 RMK A01 T01810073  RH  049%=      5-min Rain = 0
KCO2 260101Z 05009KT 18/07 A3024 RMK A01 T01800073  RH  050%=      5-min Rain = 0
KCO2 260102Z 06008KT 18/07 A3024 RMK A01 T01800073  RH  050%=      5-min Rain = 0
KCO2 260103Z 05009KT 18/07 A3024 RMK A01 T01790073  RH  050%=      5-min Rain = 0
KCO2 260104Z 05008KT 18/07 A3024 RMK A01 T01780073  RH  050%=      5-min Rain = 0
KCO2 260105Z 05008KT 18/07 A3024 RMK A01 T01780073  RH  050%=      5-min Rain = 0
KCO2 260106Z 05008KT 18/07 A3024 RMK A01 T01770073  RH  051%=      5-min Rain = 0
KCO2 260107Z 05007KT 18/07 A3024 RMK A01 T01760073  RH  051%=      5-min Rain = 0
KCO2 260108Z 05007KT 18/07 A3024 RMK A01 T01760073  RH  051%=      5-min Rain = 0
KCO2 260109Z 06008KT 18/07 A3024 RMK A01 T01750073  RH  051%=      5-min Rain = 0
KCO2 260110Z 06007KT 17/07 A3024 RMK A01 T01740073  RH  051%=      5-min Rain = 0
KCO2 260111Z 06008KT 17/07 A3024 RMK A01 T01730073  RH  052%=      5-min Rain = 0
KCO2 260112Z 05008KT 17/07 A3024 RMK A01 T01730073  RH  052%=      5-min Rain = 0
KCO2 260113Z 06007KT 17/07 A3024 RMK A01 T01720073  RH  052%=      5-min Rain = 0
KCO2 260114Z 06008KT 17/07 A3024 RMK A01 T01720073  RH  052%=      5-min Rain = 0
KCO2 260115Z 06008KT 17/07 A3024 RMK A01 T01710073  RH  052%=      5-min Rain = 0
KCO2 260116Z 06008KT 17/07 A3024 RMK A01 T01710073  RH  052%=      5-min Rain = 0
KCO2 260117Z 06008KT 17/07 A3024 RMK A01 T01710073  RH  052%=      5-min Rain = 0
KCO2 260118Z 06007KT 17/07 A3024 RMK A01 T01700073  RH  053%=      5-min Rain = 0
KCO2 260119Z 06008KT 17/07 A3024 RMK A01 T01700073  RH  053%=      5-min Rain = 0
KCO2 260120Z 05008KT 17/07 A3024 RMK A01 T01700073  RH  053%=      5-min Rain = 0
KCO2 260121Z 06008KT 17/07 A3024 RMK A01 T01690072  RH  053%=      5-min Rain = 0
KCO2 260122Z 05008KT 17/07 A3024 RMK A01 T01690072  RH  053%=      5-min Rain = 0
KCO2 260123Z 06008KT 17/07 A3024 RMK A01 T01690073  RH  053%=      5-min Rain = 0
KCO2 260124Z 06008KT 17/07 A3024 RMK A01 T01680073  RH  053%=      5-min Rain = 0
KCO2 260125Z 06008KT 17/07 A3024 RMK A01 T01680072  RH  053%=      5-min Rain = 0
KCO2 260126Z 06008KT 17/07 A3024 RMK A01 T01680073  RH  053%=      5-min Rain = 0
KCO2 260127Z 06008KT 17/07 A3024 RMK A01 T01670072  RH  053%=      5-min Rain = 0
KCO2 260128Z 06008KT 17/07 A3024 RMK A01 T01670072  RH  054%=      5-min Rain = 0
KCO2 260129Z 05008KT 17/07 A3024 RMK A01 T01670072  RH  054%=      5-min Rain = 0
KCO2 260130Z 05008KT 17/07 A3024 RMK A01 T01660072  RH  054%=      5-min Rain = 0
KCO2 260131Z 05008KT 17/07 A3024 RMK A01 T01660072  RH  054%=      5-min Rain = 0
KCO2 260132Z 06008KT 17/07 A3024 RMK A01 T01650072  RH  054%=      5-min Rain = 0
KCO2 260133Z 05009KT 17/07 A3024 RMK A01 T01650072  RH  054%=      5-min Rain = 0
KCO2 260134Z 06008KT 16/07 A3024 RMK A01 T01640072  RH  054%=      5-min Rain = 0
KCO2 260135Z 06008KT 16/07 A3024 RMK A01 T01640072  RH  055%=      5-min Rain = 0
KCO2 260136Z 05008KT 16/07 A3025 RMK A01 T01640072  RH  055%=      5-min Rain = 0
KCO2 260137Z 06009KT 16/07 A3025 RMK A01 T01630072  RH  055%=      5-min Rain = 0
KCO2 260138Z 06008KT 16/07 A3025 RMK A01 T01630072  RH  055%=      5-min Rain = 0
KCO2 260139Z 06009KT 16/07 A3025 RMK A01 T01630072  RH  055%=      5-min Rain = 0
KCO2 260140Z 06009KT 16/07 A3025 RMK A01 T01630072  RH  055%=      5-min Rain = 0
KCO2 260141Z 06009KT 16/07 A3025 RMK A01 T01630072  RH  055%=      5-min Rain = 0
KCO2 260142Z 06008KT 16/07 A3025 RMK A01 T01630072  RH  055%=      5-min Rain = 0
KCO2 260143Z 05008KT 16/07 A3025 RMK A01 T01620072  RH  055%=      5-min Rain = 0
KCO2 260144Z 06008KT 16/07 A3025 RMK A01 T01620071  RH  055%=      5-min Rain = 0
KCO2 260145Z 06008KT 16/07 A3025 RMK A01 T01610072  RH  055%=      5-min Rain = 0
KCO2 260146Z 06009KT 16/07 A3025 RMK A01 T01610071  RH  055%=      5-min Rain = 0
KCO2 260147Z 05008KT 16/07 A3025 RMK A01 T01600071  RH  056%=      5-min Rain = 0
KCO2 260148Z 06008KT 16/07 A3025 RMK A01 T01600071  RH  056%=      5-min Rain = 0
KCO2 260149Z 06008KT 16/07 A3025 RMK A01 T01590071  RH  056%=      5-min Rain = 0
KCO2 260150Z 06008KT 16/07 A3025 RMK A01 T01590071  RH  056%=      5-min Rain = 0
KCO2 260151Z 06008KT 16/07 A3025 RMK A01 T01590071  RH  056%=      5-min Rain = 0
KCO2 260152Z 06008KT 16/07 A3025 RMK A01 T01580071  RH  056%=      5-min Rain = 0
KCO2 260153Z 05007KT 16/07 A3025 RMK A01 T01580071  RH  056%=      5-min Rain = 0
KCO2 260154Z 06008KT 16/07 A3025 RMK A01 T01580071  RH  056%=      5-min Rain = 0
KCO2 260155Z 06008KT 16/07 A3025 RMK A01 T01580071  RH  056%=      5-min Rain = 0
KCO2 260156Z 06008KT 16/07 A3025 RMK A01 T01580071  RH  056%=      5-min Rain = 0
KCO2 260157Z 06008KT 16/07 A3025 RMK A01 T01580071  RH  056%=      5-min Rain = 0
KCO2 260158Z 06008KT 16/07 A3025 RMK A01 T01570070  RH  056%=      5-min Rain = 0
KCO2 260159Z 06008KT 16/07 A3025 RMK A01 T01570071  RH  057%=      5-min Rain = 0
KCO2 260200Z 06008KT 16/07 A3025 RMK A01 T01570071  RH  057%=      5-min Rain = 0
KCO2 260201Z 06008KT 16/07 A3025 RMK A01 T01560070  RH  057%=      5-min Rain = 0
KCO2 260202Z 06008KT 16/07 A3025 RMK A01 T01560071  RH  057%=      5-min Rain = 0
KCO2 260203Z 06008KT 16/07 A3025 RMK A01 T01550070  RH  057%=      5-min Rain = 0
KCO2 260204Z 06008KT 16/07 A3025 RMK A01 T01560071  RH  057%=      5-min Rain = 0
KCO2 260205Z 06008KT 16/07 A3025 RMK A01 T01560071  RH  057%=      5-min Rain = 0
KCO2 260206Z 06008KT 16/07 A3025 RMK A01 T01550070  RH  057%=      5-min Rain = 0
KCO2 260207Z 05008KT 16/07 A3025 RMK A01 T01550071  RH  057%=      5-min Rain = 0
KCO2 260208Z 06008KT 16/07 A3025 RMK A01 T01550070  RH  057%=      5-min Rain = 0
KCO2 260209Z 06008KT 15/07 A3025 RMK A01 T01540070  RH  057%=      5-min Rain = 0
KCO2 260210Z 06008KT 15/07 A3025 RMK A01 T01540070  RH  058%=      5-min Rain = 0
KCO2 260211Z 06008KT 15/07 A3026 RMK A01 T01530070  RH  058%=      5-min Rain = 0
KCO2 260212Z 06008KT 15/07 A3026 RMK A01 T01530070  RH  058%=      5-min Rain = 0
KCO2 260213Z 06008KT 15/07 A3026 RMK A01 T01520070  RH  058%=      5-min Rain = 0
KCO2 260214Z 06008KT 15/07 A3026 RMK A01 T01520070  RH  058%=      5-min Rain = 0
KCO2 260215Z 06008KT 15/07 A3026 RMK A01 T01520071  RH  058%=      5-min Rain = 0
KCO2 260216Z 06008KT 15/07 A3026 RMK A01 T01520070  RH  058%=      5-min Rain = 0
KCO2 260217Z 06008KT 15/07 A3026 RMK A01 T01520070  RH  058%=      5-min Rain = 0
KCO2 260218Z 06008KT 15/07 A3026 RMK A01 T01520070  RH  058%=      5-min Rain = 0
KCO2 260219Z 06008KT 15/07 A3026 RMK A01 T01510070  RH  058%=      5-min Rain = 0
KCO2 260220Z 06008KT 15/07 A3026 RMK A01 T01510070  RH  059%=      5-min Rain = 0
KCO2 260221Z 06007KT 15/07 A3026 RMK A01 T01500070  RH  059%=      5-min Rain = 0
KCO2 260222Z 06008KT 15/07 A3026 RMK A01 T01500070  RH  059%=      5-min Rain = 0
KCO2 260223Z 06008KT 15/07 A3026 RMK A01 T01500070  RH  059%=      5-min Rain = 0
KCO2 260224Z 06008KT 15/07 A3026 RMK A01 T01500070  RH  059%=      5-min Rain = 0
KCO2 260225Z 06008KT 15/07 A3026 RMK A01 T01490070  RH  059%=      5-min Rain = 0
KCO2 260226Z 06008KT 15/07 A3026 RMK A01 T01490070  RH  059%=      5-min Rain = 0
KCO2 260227Z 06008KT 15/07 A3026 RMK A01 T01490070  RH  059%=      5-min Rain = 0
KCO2 260228Z 06008KT 15/07 A3026 RMK A01 T01490070  RH  059%=      5-min Rain = 0
KCO2 260229Z 06008KT 15/07 A3026 RMK A01 T01490070  RH  059%=      5-min Rain = 0
KCO2 260230Z 06008KT 15/07 A3026 RMK A01 T01480070  RH  059%=      5-min Rain = 0
KCO2 260231Z 06008KT 15/07 A3026 RMK A01 T01480070  RH  059%=      5-min Rain = 0
KCO2 260232Z 06008KT 15/07 A3026 RMK A01 T01480070  RH  059%=      5-min Rain = 0
KCO2 260233Z 06008KT 15/07 A3026 RMK A01 T01470070  RH  060%=      5-min Rain = 0
KCO2 260234Z 06008KT 15/07 A3027 RMK A01 T01470070  RH  060%=      5-min Rain = 0
KCO2 260235Z 06008KT 15/07 A3027 RMK A01 T01470070  RH  060%=      5-min Rain = 0
KCO2 260236Z 06008KT 15/07 A3027 RMK A01 T01460070  RH  060%=      5-min Rain = 0
KCO2 260237Z 06008KT 15/07 A3027 RMK A01 T01460070  RH  060%=      5-min Rain = 0
KCO2 260238Z 06007KT 15/07 A3027 RMK A01 T01460069  RH  060%=      5-min Rain = 0
KCO2 260239Z 06008KT 15/07 A3027 RMK A01 T01460070  RH  060%=      5-min Rain = 0
KCO2 260240Z 06008KT 15/07 A3027 RMK A01 T01450070  RH  060%=      5-min Rain = 0
KCO2 260241Z 06008KT 15/07 A3027 RMK A01 T01450069  RH  061%=      5-min Rain = 0
KCO2 260242Z 06008KT 15/07 A3027 RMK A01 T01450070  RH  061%=      5-min Rain = 0
KCO2 260243Z 06008KT 14/07 A3027 RMK A01 T01440069  RH  061%=      5-min Rain = 0
KCO2 260244Z 06008KT 14/07 A3027 RMK A01 T01440069  RH  061%=      5-min Rain = 0
KCO2 260245Z 06008KT 14/07 A3027 RMK A01 T01430070  RH  061%=      5-min Rain = 0
KCO2 260246Z 06008KT 14/07 A3027 RMK A01 T01430070  RH  061%=      5-min Rain = 0
KCO2 260247Z 06007KT 14/07 A3027 RMK A01 T01430070  RH  061%=      5-min Rain = 0
KCO2 260248Z 06008KT 14/07 A3027 RMK A01 T01430069  RH  061%=      5-min Rain = 0
KCO2 260249Z 06008KT 14/07 A3027 RMK A01 T01430069  RH  061%=      5-min Rain = 0
KCO2 260250Z 06008KT 14/07 A3027 RMK A01 T01420069  RH  062%=      5-min Rain = 0
KCO2 260251Z 06008KT 14/07 A3027 RMK A01 T01420070  RH  062%=      5-min Rain = 0
KCO2 260252Z 06008KT 14/07 A3027 RMK A01 T01420070  RH  062%=      5-min Rain = 0
KCO2 260253Z 06008KT 14/07 A3027 RMK A01 T01420070  RH  062%=      5-min Rain = 0
KCO2 260254Z 06008KT 14/07 A3027 RMK A01 T01410069  RH  062%=      5-min Rain = 0
KCO2 260255Z 06009KT 14/07 A3027 RMK A01 T01410070  RH  062%=      5-min Rain = 0
KCO2 260256Z 06008KT 14/07 A3027 RMK A01 T01410070  RH  062%=      5-min Rain = 0
KCO2 260257Z 06009KT 14/07 A3027 RMK A01 T01410070  RH  062%=      5-min Rain = 0
KCO2 260258Z 06009KT 14/07 A3027 RMK A01 T01420070  RH  062%=      5-min Rain = 0
KCO2 260259Z 06008KT 14/07 A3027 RMK A01 T01420071  RH  062%=      5-min Rain = 0
KCO2 260300Z 06009KT 14/07 A3028 RMK A01 T01430071  RH  062%=      5-min Rain = 0
KCO2 260301Z 06009KT 14/07 A3028 RMK A01 T01430071  RH  062%=      5-min Rain = 0
KCO2 260302Z 06008KT 14/07 A3028 RMK A01 T01430071  RH  062%=      5-min Rain = 0
KCO2 260303Z 06009KT 14/07 A3028 RMK A01 T01430071  RH  062%=      5-min Rain = 0
KCO2 260304Z 06008KT 14/07 A3028 RMK A01 T01430071  RH  062%=      5-min Rain = 0
KCO2 260305Z 06008KT 14/07 A3028 RMK A01 T01430071  RH  062%=      5-min Rain = 0
KCO2 260306Z 06009KT 14/07 A3028 RMK A01 T01420071  RH  062%=      5-min Rain = 0
KCO2 260307Z 07008KT 14/07 A3028 RMK A01 T01420072  RH  062%=      5-min Rain = 0
KCO2 260308Z 07008KT 14/07 A3028 RMK A01 T01420071  RH  062%=      5-min Rain = 0
KCO2 260309Z 07008KT 14/07 A3028 RMK A01 T01420071  RH  063%=      5-min Rain = 0
KCO2 260310Z 07008KT 14/07 A3028 RMK A01 T01420071  RH  063%=      5-min Rain = 0
KCO2 260311Z 06008KT 14/07 A3028 RMK A01 T01410071  RH  063%=      5-min Rain = 0
KCO2 260312Z 07009KT 14/07 A3028 RMK A01 T01410072  RH  063%=      5-min Rain = 0
KCO2 260313Z 07009KT 14/07 A3028 RMK A01 T01410072  RH  063%=      5-min Rain = 0
KCO2 260314Z 07008KT 14/07 A3028 RMK A01 T01410072  RH  063%=      5-min Rain = 0
KCO2 260315Z 07009KT 14/07 A3028 RMK A01 T01410072  RH  063%=      5-min Rain = 0
KCO2 260316Z 07009KT 14/07 A3028 RMK A01 T01410072  RH  063%=      5-min Rain = 0
KCO2 260317Z 07008KT 14/07 A3028 RMK A01 T01410072  RH  063%=      5-min Rain = 0
KCO2 260318Z 07008KT 14/07 A3028 RMK A01 T01400072  RH  063%=      5-min Rain = 0
KCO2 260319Z 07008KT 14/07 A3028 RMK A01 T01400072  RH  063%=      5-min Rain = 0
KCO2 260320Z 07008KT 14/07 A3028 RMK A01 T01400072  RH  064%=      5-min Rain = 0
KCO2 260321Z 07008KT 14/07 A3028 RMK A01 T01400072  RH  064%=      5-min Rain = 0
KCO2 260322Z 07009KT 14/07 A3029 RMK A01 T01390072  RH  064%=      5-min Rain = 0
KCO2 260323Z 07009KT 14/07 A3029 RMK A01 T01400072  RH  064%=      5-min Rain = 0
KCO2 260324Z 07009KT 14/07 A3029 RMK A01 T01400073  RH  064%=      5-min Rain = 0
KCO2 260325Z 07009KT 14/07 A3029 RMK A01 T01400072  RH  064%=      5-min Rain = 0
KCO2 260326Z 07009KT 14/07 A3029 RMK A01 T01400073  RH  064%=      5-min Rain = 0
KCO2 260327Z 07009KT 14/07 A3029 RMK A01 T01400073  RH  064%=      5-min Rain = 0
KCO2 260328Z 07009KT 14/07 A3029 RMK A01 T01400073  RH  064%=      5-min Rain = 0
KCO2 260329Z 07009KT 14/07 A3029 RMK A01 T01390072  RH  064%=      5-min Rain = 0
KCO2 260330Z 07009KT 14/07 A3029 RMK A01 T01390072  RH  064%=      5-min Rain = 0
KCO2 260331Z 07008KT 14/07 A3029 RMK A01 T01390072  RH  064%=      5-min Rain = 0
KCO2 260332Z 07008KT 14/07 A3029 RMK A01 T01390073  RH  064%=      5-min Rain = 0
KCO2 260333Z 07009KT 14/07 A3029 RMK A01 T01390073  RH  064%=      5-min Rain = 0
KCO2 260334Z 07009KT 14/07 A3029 RMK A01 T01390073  RH  064%=      5-min Rain = 0
KCO2 260335Z 07008KT 14/07 A3029 RMK A01 T01380073  RH  064%=      5-min Rain = 0
KCO2 260336Z 07009KT 14/07 A3029 RMK A01 T01390073  RH  064%=      5-min Rain = 0
KCO2 260337Z 07009KT 14/07 A3029 RMK A01 T01380073  RH  065%=      5-min Rain = 0
KCO2 260338Z 07008KT 14/07 A3029 RMK A01 T01380072  RH  065%=      5-min Rain = 0
KCO2 260339Z 07009KT 14/07 A3029 RMK A01 T01370072  RH  065%=      5-min Rain = 0
KCO2 260340Z 07009KT 14/07 A3029 RMK A01 T01370072  RH  065%=      5-min Rain = 0
KCO2 260341Z 07008KT 14/07 A3029 RMK A01 T01370072  RH  065%=      5-min Rain = 0
KCO2 260342Z 07009KT 14/07 A3029 RMK A01 T01360072  RH  065%=      5-min Rain = 0
KCO2 260343Z 07009KT 14/07 A3029 RMK A01 T01360072  RH  065%=      5-min Rain = 0
KCO2 260344Z 07008KT 14/07 A3029 RMK A01 T01360072  RH  065%=      5-min Rain = 0
KCO2 260345Z 07008KT 14/07 A3029 RMK A01 T01360072  RH  065%=      5-min Rain = 0
KCO2 260346Z 07009KT 14/07 A3029 RMK A01 T01360072  RH  065%=      5-min Rain = 0
KCO2 260347Z 07009KT 14/07 A3029 RMK A01 T01360072  RH  065%=      5-min Rain = 0
KCO2 260348Z 07008KT 14/07 A3029 RMK A01 T01360072  RH  066%=      5-min Rain = 0
KCO2 260349Z 07008KT 14/07 A3029 RMK A01 T01350072  RH  066%=      5-min Rain = 0
KCO2 260350Z 07008KT 14/07 A3029 RMK A01 T01350073  RH  066%=      5-min Rain = 0
KCO2 260351Z 07009KT 13/07 A3029 RMK A01 T01340072  RH  066%=      5-min Rain = 0
KCO2 260352Z 07009KT 14/07 A3029 RMK A01 T01350072  RH  066%=      5-min Rain = 0
KCO2 260353Z 07009KT 14/07 A3029 RMK A01 T01350072  RH  066%=      5-min Rain = 0
KCO2 260354Z 07008KT 14/07 A3029 RMK A01 T01350072  RH  065%=      5-min Rain = 0
KCO2 260355Z 07009KT 14/07 A3029 RMK A01 T01350072  RH  066%=      5-min Rain = 0
KCO2 260356Z 07009KT 14/07 A3029 RMK A01 T01350072  RH  066%=      5-min Rain = 0
KCO2 260357Z 07009KT 14/07 A3029 RMK A01 T01360072  RH  066%=      5-min Rain = 0
KCO2 260358Z 07009KT 14/07 A3029 RMK A01 T01350072  RH  066%=      5-min Rain = 0
KCO2 260359Z 07008KT 14/07 A3029 RMK A01 T01350072  RH  066%=      5-min Rain = 0
KCO2 260400Z 07008KT 13/07 A3029 RMK A01 T01340072  RH  066%=      5-min Rain = 0
KCO2 260401Z 07008KT 13/07 A3029 RMK A01 T01340072  RH  066%=      5-min Rain = 0
KCO2 260402Z 07008KT 13/07 A303 RMK A01 T01340072  RH  066%=      5-min Rain = 0
KCO2 260403Z 07009KT 13/07 A303 RMK A01 T01330072  RH  067%=      5-min Rain = 0
KCO2 260404Z 07009KT 13/07 A303 RMK A01 T01330072  RH  067%=      5-min Rain = 0
KCO2 260405Z 07008KT 13/07 A303 RMK A01 T01330072  RH  067%=      5-min Rain = 0
KCO2 260406Z 07008KT 13/07 A303 RMK A01 T01320072  RH  067%=      5-min Rain = 0
KCO2 260407Z 07008KT 13/07 A303 RMK A01 T01320072  RH  067%=      5-min Rain = 0
KCO2 260408Z 07009KT 13/07 A303 RMK A01 T01320073  RH  067%=      5-min Rain = 0
KCO2 260409Z 07008KT 13/07 A303 RMK A01 T01320073  RH  067%=      5-min Rain = 0
KCO2 260410Z 07008KT 13/07 A303 RMK A01 T01320073  RH  067%=      5-min Rain = 0
KCO2 260411Z 07008KT 13/07 A303 RMK A01 T01310072  RH  067%=      5-min Rain = 0
KCO2 260412Z 07008KT 13/07 A303 RMK A01 T01310073  RH  068%=      5-min Rain = 0
KCO2 260413Z 07008KT 13/07 A303 RMK A01 T01310073  RH  068%=      5-min Rain = 0
KCO2 260414Z 07008KT 13/07 A303 RMK A01 T01310073  RH  068%=      5-min Rain = 0
KCO2 260415Z 07008KT 13/07 A303 RMK A01 T01310073  RH  068%=      5-min Rain = 0
KCO2 260416Z 07008KT 13/07 A303 RMK A01 T01300073  RH  068%=      5-min Rain = 0
KCO2 260417Z 07008KT 13/07 A303 RMK A01 T01300073  RH  068%=      5-min Rain = 0
KCO2 260418Z 07008KT 13/07 A303 RMK A01 T01300073  RH  068%=      5-min Rain = 0
KCO2 260419Z 07009KT 13/07 A303 RMK A01 T01290073  RH  069%=      5-min Rain = 0
KCO2 260420Z 07008KT 13/07 A303 RMK A01 T01290073  RH  069%=      5-min Rain = 0
KCO2 260421Z 07009KT 13/07 A303 RMK A01 T01290073  RH  069%=      5-min Rain = 0
KCO2 260422Z 07009KT 13/07 A303 RMK A01 T01290073  RH  069%=      5-min Rain = 0
KCO2 260423Z 07009KT 13/07 A303 RMK A01 T01290073  RH  069%=      5-min Rain = 0
KCO2 260424Z 07008KT 13/07 A303 RMK A01 T01290073  RH  069%=      5-min Rain = 0
KCO2 260425Z 07009KT 13/07 A303 RMK A01 T01290073  RH  069%=      5-min Rain = 0
KCO2 260426Z 07009KT 13/07 A303 RMK A01 T01290073  RH  069%=      5-min Rain = 0
KCO2 260427Z 07008KT 13/07 A303 RMK A01 T01300074  RH  069%=      5-min Rain = 0
KCO2 260428Z 08009KT 13/07 A303 RMK A01 T01290074  RH  069%=      5-min Rain = 0
KCO2 260429Z 07009KT 13/07 A303 RMK A01 T01300074  RH  069%=      5-min Rain = 0
KCO2 260430Z 07009KT 13/07 A303 RMK A01 T01300074  RH  069%=      5-min Rain = 0
KCO2 260431Z 07009KT 13/07 A303 RMK A01 T01300074  RH  069%=      5-min Rain = 0
KCO2 260432Z 08008KT 13/07 A303 RMK A01 T01300074  RH  069%=      5-min Rain = 0
KCO2 260433Z 07009KT 13/07 A303 RMK A01 T01290074  RH  069%=      5-min Rain = 0
KCO2 260434Z 08009KT 13/07 A303 RMK A01 T01290074  RH  069%=      5-min Rain = 0
KCO2 260435Z 08008KT 13/07 A303 RMK A01 T01280074  RH  069%=      5-min Rain = 0
KCO2 260436Z 08008KT 13/07 A303 RMK A01 T01280073  RH  069%=      5-min Rain = 0
KCO2 260437Z 07008KT 13/07 A303 RMK A01 T01270073  RH  070%=      5-min Rain = 0
KCO2 260438Z 08008KT 13/07 A303 RMK A01 T01270074  RH  070%=      5-min Rain = 0
KCO2 260439Z 08009KT 13/07 A303 RMK A01 T01270073  RH  070%=      5-min Rain = 0
KCO2 260440Z 08008KT 13/07 A303 RMK A01 T01260073  RH  070%=      5-min Rain = 0
KCO2 260441Z 07008KT 13/07 A303 RMK A01 T01260073  RH  070%=      5-min Rain = 0
KCO2 260442Z 08008KT 13/07 A303 RMK A01 T01250073  RH  071%=      5-min Rain = 0
KCO2 260443Z 07008KT 13/07 A303 RMK A01 T01250073  RH  071%=      5-min Rain = 0
KCO2 260444Z 07008KT 13/07 A303 RMK A01 T01250073  RH  071%=      5-min Rain = 0
KCO2 260445Z 07009KT 13/07 A303 RMK A01 T01250073  RH  071%=      5-min Rain = 0
KCO2 260446Z 07009KT 12/07 A303 RMK A01 T01240073  RH  071%=      5-min Rain = 0
KCO2 260447Z 07008KT 12/07 A303 RMK A01 T01240073  RH  071%=      5-min Rain = 0
KCO2 260448Z 07009KT 13/07 A3029 RMK A01 T01250074  RH  071%=      5-min Rain = 0
KCO2 260449Z 07008KT 12/07 A3029 RMK A01 T01240073  RH  071%=      5-min Rain = 0
KCO2 260450Z 07009KT 12/07 A3029 RMK A01 T01240073  RH  071%=      5-min Rain = 0
KCO2 260451Z 07009KT 12/07 A3029 RMK A01 T01240074  RH  071%=      5-min Rain = 0
KCO2 260452Z 07009KT 12/07 A3029 RMK A01 T01240073  RH  071%=      5-min Rain = 0
KCO2 260453Z 07009KT 12/07 A3029 RMK A01 T01240073  RH  071%=      5-min Rain = 0
KCO2 260454Z 07009KT 12/07 A3029 RMK A01 T01240074  RH  071%=      5-min Rain = 0
KCO2 260455Z 06010KT 12/07 A3029 RMK A01 T01240073  RH  071%=      5-min Rain = 0
KCO2 260456Z 07010KT 12/07 A3029 RMK A01 T01240074  RH  071%=      5-min Rain = 0
KCO2 260457Z 06010KT 12/07 A3029 RMK A01 T01240073  RH  071%=      5-min Rain = 0
KCO2 260458Z 07010KT 12/07 A3029 RMK A01 T01240073  RH  071%=      5-min Rain = 0
KCO2 260459Z 07009KT 12/07 A3029 RMK A01 T01240073  RH  071%=      5-min Rain = 0

Page generated in 0.0322 seconds.